UAE196A MMMX-LEBL
Flight info
| Callsign | UAE196A |
|---|---|
| Flight time | N/A |
| Altitude | 33000 |
| Route | NOXOS2B NOXOS UT106 COFRE UM580 IRDOV M580 MINOW DCT LAL/N0494F350 DCT HOBEE M202 LENDS DCT UKOKA/M084F350 DCT BEXUM M204 LUNKR DCT 38N060W 42N050W 4330N04000W/M084F370 4330N03000W 43N020W DCT BANAL/N0485F370 DCT RIVRO/N0495F310 DCT BARDI/N0492F320 M191 DIPOL DCT RBO DCT PINAR DCT SEGRE DCT BRITO DCT PISUS/N0496F300 DCT PONEN T600 CASPE |
| Aircraft | B77W/H-SDE1E2E3FGHIJ2J3J4J5M1RWXY/LB1D1 |
Departure
| Time | 2026-05-06 08:06 |
|---|---|
| Airport | Mexico City Benito Juárez International Airport (MMMX) |
Arrival
| Time | N/A |
|---|---|
| Airport | Josep Tarradellas Barcelona-El Prat Airport (LEBL) |
| Time | Latitude | Longitude | Altitude | Speed | Heading |
|---|---|---|---|---|---|
| 2026-05-06 07:58 | 19.43499 | -99.07968 | 7308 ft | 0 kts | 238° |
| 2026-05-06 08:00 | 19.43480 | -99.07999 | 7307 ft | 12 kts | 238° |
| 2026-05-06 08:00 | 19.43430 | -99.08086 | 7307 ft | 15 kts | 239° |
| 2026-05-06 08:01 | 19.43380 | -99.08177 | 7307 ft | 14 kts | 240° |
| 2026-05-06 08:01 | 19.43331 | -99.08267 | 7307 ft | 14 kts | 240° |
| 2026-05-06 08:01 | 19.43280 | -99.08358 | 7307 ft | 14 kts | 238° |
| 2026-05-06 08:01 | 19.43228 | -99.08447 | 7307 ft | 14 kts | 238° |
| 2026-05-06 08:02 | 19.43177 | -99.08538 | 7307 ft | 14 kts | 239° |
| 2026-05-06 08:02 | 19.43127 | -99.08628 | 7307 ft | 14 kts | 238° |
| 2026-05-06 08:02 | 19.43074 | -99.08718 | 7307 ft | 14 kts | 239° |
| 2026-05-06 08:02 | 19.43025 | -99.08809 | 7307 ft | 14 kts | 240° |
| 2026-05-06 08:03 | 19.42976 | -99.08900 | 7307 ft | 14 kts | 240° |
| 2026-05-06 08:03 | 19.42925 | -99.08987 | 7307 ft | 13 kts | 234° |
| 2026-05-06 08:03 | 19.42866 | -99.09039 | 7307 ft | 10 kts | 210° |
| 2026-05-06 08:03 | 19.42814 | -99.09070 | 7307 ft | 8 kts | 205° |
| 2026-05-06 08:04 | 19.42768 | -99.09069 | 7307 ft | 6 kts | 138° |
| 2026-05-06 08:04 | 19.42772 | -99.09026 | 7307 ft | 6 kts | 60° |
| 2026-05-06 08:04 | 19.42773 | -99.09024 | 7307 ft | 0 kts | 60° |
| 2026-05-06 08:05 | 19.42774 | -99.09024 | 7307 ft | 0 kts | 60° |
| 2026-05-06 08:05 | 19.42870 | -99.08853 | 7308 ft | 59 kts | 59° |
| 2026-05-06 08:06 | 19.43193 | -99.08283 | 7307 ft | 121 kts | 59° |
| 2026-05-06 08:06 | 19.43731 | -99.07328 | 7308 ft | 179 kts | 59° |
| 2026-05-06 08:06 | 19.44468 | -99.06029 | 7340 ft | 225 kts | 58° |
| 2026-05-06 08:06 | 19.45253 | -99.04629 | 8538 ft | 216 kts | 59° |
| 2026-05-06 08:07 | 19.46003 | -99.03222 | 9160 ft | 222 kts | 60° |
| 2026-05-06 08:07 | 19.46788 | -99.01796 | 9206 ft | 231 kts | 58° |
| 2026-05-06 08:07 | 19.47638 | -99.00315 | 9235 ft | 240 kts | 58° |
| 2026-05-06 08:07 | 19.48520 | -98.98769 | 9267 ft | 251 kts | 58° |
| 2026-05-06 08:08 | 19.49435 | -98.97155 | 9300 ft | 258 kts | 59° |
| 2026-05-06 08:08 | 19.50362 | -98.95510 | 9381 ft | 262 kts | 60° |
| 2026-05-06 08:08 | 19.51300 | -98.93839 | 9626 ft | 265 kts | 60° |
| 2026-05-06 08:08 | 19.52255 | -98.92135 | 9825 ft | 273 kts | 60° |
| 2026-05-06 08:09 | 19.53238 | -98.90351 | 9896 ft | 287 kts | 65° |
| 2026-05-06 08:09 | 19.53747 | -98.89033 | 9931 ft | 295 kts | 73° |
| 2026-05-06 08:09 | 19.54316 | -98.86886 | 10054 ft | 310 kts | 76° |
| 2026-05-06 08:09 | 19.55036 | -98.83843 | 10175 ft | 332 kts | 76° |
| 2026-05-06 08:10 | 19.55626 | -98.81428 | 10419 ft | 342 kts | 76° |
| 2026-05-06 08:10 | 19.56037 | -98.79806 | 10659 ft | 347 kts | 75° |
| 2026-05-06 08:10 | 19.56683 | -98.77315 | 11085 ft | 352 kts | 75° |
| 2026-05-06 08:10 | 19.57348 | -98.74786 | 11542 ft | 356 kts | 75° |
| 2026-05-06 08:11 | 19.57995 | -98.72236 | 12008 ft | 360 kts | 77° |
| 2026-05-06 08:11 | 19.58497 | -98.69613 | 12459 ft | 364 kts | 80° |
| 2026-05-06 08:11 | 19.58935 | -98.66948 | 12928 ft | 367 kts | 80° |
| 2026-05-06 08:11 | 19.59363 | -98.64298 | 13422 ft | 371 kts | 80° |
| 2026-05-06 08:12 | 19.59813 | -98.61589 | 13913 ft | 374 kts | 79° |
| 2026-05-06 08:12 | 19.60282 | -98.58843 | 14374 ft | 377 kts | 79° |
| 2026-05-06 08:12 | 19.60761 | -98.56089 | 14843 ft | 380 kts | 79° |
| 2026-05-06 08:12 | 19.61243 | -98.53323 | 15325 ft | 383 kts | 79° |
| 2026-05-06 08:13 | 19.61662 | -98.50559 | 15773 ft | 384 kts | 86° |
| 2026-05-06 08:13 | 19.61667 | -98.47721 | 16256 ft | 385 kts | 92° |
| 2026-05-06 08:13 | 19.61508 | -98.44881 | 16759 ft | 388 kts | 93° |
| 2026-05-06 08:13 | 19.61373 | -98.41978 | 16907 ft | 401 kts | 92° |
| 2026-05-06 08:14 | 19.61274 | -98.38984 | 17087 ft | 411 kts | 91° |
| 2026-05-06 08:14 | 19.61190 | -98.35918 | 17427 ft | 416 kts | 91° |
| 2026-05-06 08:14 | 19.61109 | -98.32833 | 17903 ft | 419 kts | 91° |
| 2026-05-06 08:14 | 19.61031 | -98.29782 | 18380 ft | 420 kts | 92° |
| 2026-05-06 08:15 | 19.60949 | -98.26677 | 18792 ft | 422 kts | 92° |
| 2026-05-06 08:15 | 19.60865 | -98.23553 | 19168 ft | 425 kts | 92° |
| 2026-05-06 08:15 | 19.60779 | -98.20401 | 19535 ft | 428 kts | 92° |
| 2026-05-06 08:15 | 19.60692 | -98.17225 | 19907 ft | 431 kts | 92° |
| 2026-05-06 08:16 | 19.60603 | -98.14027 | 20291 ft | 434 kts | 92° |
| 2026-05-06 08:16 | 19.60515 | -98.10861 | 20647 ft | 437 kts | 93° |
| 2026-05-06 08:16 | 19.60425 | -98.07632 | 21016 ft | 439 kts | 93° |
| 2026-05-06 08:16 | 19.60334 | -98.04384 | 21366 ft | 442 kts | 93° |
| 2026-05-06 08:17 | 19.60327 | -98.01113 | 21653 ft | 445 kts | 86° |
| 2026-05-06 08:17 | 19.61049 | -97.97903 | 21865 ft | 450 kts | 70° |
| 2026-05-06 08:17 | 19.62236 | -97.94810 | 22097 ft | 455 kts | 69° |
| 2026-05-06 08:17 | 19.63453 | -97.91688 | 22414 ft | 458 kts | 69° |
| 2026-05-06 08:18 | 19.64660 | -97.88548 | 22780 ft | 460 kts | 70° |
| 2026-05-06 08:18 | 19.65838 | -97.85422 | 23126 ft | 462 kts | 70° |
| 2026-05-06 08:18 | 19.67022 | -97.82227 | 23453 ft | 465 kts | 71° |
| 2026-05-06 08:18 | 19.68200 | -97.79013 | 23711 ft | 468 kts | 71° |
| 2026-05-06 08:19 | 19.69378 | -97.75779 | 23985 ft | 470 kts | 71° |
| 2026-05-06 08:19 | 19.70557 | -97.72536 | 24269 ft | 472 kts | 71° |
| 2026-05-06 08:19 | 19.71738 | -97.69283 | 24576 ft | 473 kts | 71° |
| 2026-05-06 08:19 | 19.72925 | -97.66012 | 24820 ft | 475 kts | 71° |
| 2026-05-06 08:20 | 19.74101 | -97.62774 | 25067 ft | 478 kts | 71° |
| 2026-05-06 08:20 | 19.75299 | -97.59473 | 25307 ft | 480 kts | 71° |
| 2026-05-06 08:20 | 19.76504 | -97.56153 | 25558 ft | 482 kts | 71° |
| 2026-05-06 08:20 | 19.77711 | -97.52825 | 25799 ft | 484 kts | 71° |
| 2026-05-06 08:21 | 19.78923 | -97.49482 | 26033 ft | 486 kts | 71° |
| 2026-05-06 08:21 | 19.80142 | -97.46117 | 26268 ft | 488 kts | 71° |
| 2026-05-06 08:21 | 19.81363 | -97.42742 | 26505 ft | 490 kts | 71° |
| 2026-05-06 08:21 | 19.82593 | -97.39343 | 26741 ft | 492 kts | 71° |
| 2026-05-06 08:22 | 19.83809 | -97.35979 | 26973 ft | 494 kts | 71° |
| 2026-05-06 08:22 | 19.85045 | -97.32559 | 27210 ft | 496 kts | 71° |
| 2026-05-06 08:22 | 19.86286 | -97.29125 | 27417 ft | 498 kts | 71° |
| 2026-05-06 08:22 | 19.87530 | -97.25677 | 27623 ft | 500 kts | 71° |
| 2026-05-06 08:23 | 19.88780 | -97.22214 | 27856 ft | 502 kts | 71° |
| 2026-05-06 08:23 | 19.90029 | -97.18750 | 28066 ft | 503 kts | 71° |
| 2026-05-06 08:23 | 19.91270 | -97.15304 | 28257 ft | 505 kts | 71° |
| 2026-05-06 08:23 | 19.92534 | -97.11793 | 28417 ft | 507 kts | 71° |
| 2026-05-06 08:24 | 19.93798 | -97.08279 | 28589 ft | 509 kts | 71° |
| 2026-05-06 08:24 | 19.95051 | -97.04793 | 28764 ft | 511 kts | 71° |
| 2026-05-06 08:24 | 19.96321 | -97.01256 | 28948 ft | 512 kts | 71° |
| 2026-05-06 08:24 | 19.97594 | -96.97710 | 29079 ft | 514 kts | 71° |
| 2026-05-06 08:25 | 19.98872 | -96.94146 | 29240 ft | 516 kts | 71° |
| 2026-05-06 08:25 | 20.00151 | -96.90578 | 29390 ft | 517 kts | 71° |
| 2026-05-06 08:25 | 20.01436 | -96.86989 | 29568 ft | 518 kts | 71° |
| 2026-05-06 08:25 | 20.02718 | -96.83409 | 29765 ft | 518 kts | 71° |
| 2026-05-06 08:26 | 20.03983 | -96.79872 | 29983 ft | 517 kts | 71° |
| 2026-05-06 08:26 | 20.05262 | -96.76293 | 30197 ft | 516 kts | 71° |
| 2026-05-06 08:26 | 20.06540 | -96.72716 | 30388 ft | 516 kts | 70° |
| 2026-05-06 08:26 | 20.07816 | -96.69140 | 30575 ft | 516 kts | 70° |
| 2026-05-06 08:27 | 20.09090 | -96.65566 | 30779 ft | 515 kts | 70° |
| 2026-05-06 08:27 | 20.10365 | -96.61990 | 30968 ft | 515 kts | 70° |
| 2026-05-06 08:27 | 20.11620 | -96.58464 | 31131 ft | 516 kts | 70° |
| 2026-05-06 08:27 | 20.12894 | -96.54882 | 31311 ft | 516 kts | 70° |
| 2026-05-06 08:28 | 20.14162 | -96.51315 | 31487 ft | 516 kts | 71° |
| 2026-05-06 08:28 | 20.15437 | -96.47728 | 31671 ft | 515 kts | 70° |
| 2026-05-06 08:28 | 20.16693 | -96.44190 | 31852 ft | 515 kts | 70° |
| 2026-05-06 08:28 | 20.17960 | -96.40620 | 32036 ft | 515 kts | 71° |
| 2026-05-06 08:29 | 20.19229 | -96.37039 | 32250 ft | 515 kts | 71° |
| 2026-05-06 08:29 | 20.20491 | -96.33475 | 32513 ft | 513 kts | 70° |
| 2026-05-06 08:29 | 20.21750 | -96.29919 | 32788 ft | 509 kts | 70° |
| 2026-05-06 08:29 | 20.22968 | -96.26478 | 33605 ft | 494 kts | 70° |
| 2026-05-06 08:30 | 20.24174 | -96.23067 | 33922 ft | 493 kts | 70° |
| 2026-05-06 08:30 | 20.25393 | -96.19615 | 33721 ft | 502 kts | 70° |
| 2026-05-06 08:30 | 20.27861 | -96.12615 | 34005 ft | 501 kts | 70° |
| 2026-05-06 08:31 | 20.29082 | -96.09150 | 33832 ft | 509 kts | 70° |
| 2026-05-06 08:31 | 20.30335 | -96.05644 | 34237 ft | 500 kts | 68° |
| 2026-05-06 08:31 | 20.33610 | -95.99025 | 34229 ft | 507 kts | 57° |
| 2026-05-06 08:32 | 20.37902 | -95.93022 | 34485 ft | 506 kts | 51° |
| 2026-05-06 08:32 | 20.42344 | -95.87194 | 34671 ft | 506 kts | 51° |
| 2026-05-06 08:33 | 20.44565 | -95.84261 | 34565 ft | 512 kts | 51° |
| 2026-05-06 08:33 | 20.46804 | -95.81285 | 34695 ft | 509 kts | 51° |
| 2026-05-06 08:33 | 20.51228 | -95.75356 | 34786 ft | 512 kts | 52° |
| 2026-05-06 08:34 | 20.57886 | -95.66394 | 34892 ft | 514 kts | 52° |
| 2026-05-06 08:34 | 20.60073 | -95.63449 | 35063 ft | 513 kts | 52° |
| 2026-05-06 08:35 | 20.62302 | -95.60448 | 35005 ft | 514 kts | 52° |
| 2026-05-06 08:35 | 20.66760 | -95.54441 | 35147 ft | 513 kts | 52° |
| 2026-05-06 08:36 | 20.71207 | -95.48443 | 35245 ft | 514 kts | 52° |
| 2026-05-06 08:36 | 20.75654 | -95.42439 | 35167 ft | 519 kts | 52° |
| 2026-05-06 08:37 | 20.80153 | -95.36356 | 35105 ft | 523 kts | 52° |
| 2026-05-06 08:37 | 20.84653 | -95.30267 | 35020 ft | 526 kts | 52° |
| 2026-05-06 08:38 | 20.89207 | -95.24098 | 35045 ft | 527 kts | 52° |
| 2026-05-06 08:38 | 20.93764 | -95.17918 | 35083 ft | 528 kts | 52° |
| 2026-05-06 08:39 | 20.98301 | -95.11758 | 35085 ft | 529 kts | 52° |
| 2026-05-06 08:39 | 21.02850 | -95.05574 | 35188 ft | 528 kts | 52° |
| 2026-05-06 08:40 | 21.07343 | -94.99386 | 35159 ft | 530 kts | 55° |
| 2026-05-06 08:40 | 21.11376 | -94.92776 | 35263 ft | 528 kts | 58° |
| 2026-05-06 08:41 | 21.15278 | -94.86153 | 35301 ft | 528 kts | 58° |
| 2026-05-06 08:41 | 21.19221 | -94.79494 | 35324 ft | 528 kts | 58° |
| 2026-05-06 08:42 | 21.23193 | -94.72832 | 35337 ft | 529 kts | 58° |
| 2026-05-06 08:42 | 21.27141 | -94.66219 | 35418 ft | 528 kts | 58° |
| 2026-05-06 08:43 | 21.31108 | -94.59564 | 35433 ft | 529 kts | 58° |
| 2026-05-06 08:43 | 21.35046 | -94.52946 | 35454 ft | 529 kts | 58° |
| 2026-05-06 08:44 | 21.39016 | -94.46264 | 35413 ft | 531 kts | 58° |
| 2026-05-06 08:44 | 21.42957 | -94.39624 | 35528 ft | 529 kts | 58° |
| 2026-05-06 08:45 | 21.46918 | -94.32942 | 35473 ft | 531 kts | 58° |
| 2026-05-06 08:45 | 21.50893 | -94.26227 | 35492 ft | 531 kts | 58° |
| 2026-05-06 08:46 | 21.54833 | -94.19565 | 35551 ft | 530 kts | 58° |
| 2026-05-06 08:46 | 21.58122 | -94.13997 | 35547 ft | 531 kts | 58° |
| 2026-05-06 08:47 | 21.62757 | -94.06139 | 35530 ft | 532 kts | 58° |
| 2026-05-06 08:47 | 21.66709 | -93.99431 | 35502 ft | 533 kts | 58° |
| 2026-05-06 08:48 | 21.70681 | -93.92680 | 35541 ft | 533 kts | 58° |
| 2026-05-06 08:48 | 21.74624 | -93.85970 | 35552 ft | 533 kts | 58° |
| 2026-05-06 08:49 | 21.78573 | -93.79242 | 35577 ft | 533 kts | 58° |
| 2026-05-06 08:49 | 21.82528 | -93.72484 | 35599 ft | 533 kts | 59° |
| 2026-05-06 08:50 | 21.86212 | -93.65525 | 35581 ft | 533 kts | 61° |
| 2026-05-06 08:50 | 21.89756 | -93.58554 | 35581 ft | 534 kts | 61° |
| 2026-05-06 08:51 | 21.93336 | -93.51521 | 35591 ft | 534 kts | 61° |
| 2026-05-06 08:51 | 21.96913 | -93.44543 | 35604 ft | 534 kts | 61° |
| 2026-05-06 08:52 | 22.00520 | -93.37518 | 35592 ft | 535 kts | 61° |
| 2026-05-06 08:52 | 22.04116 | -93.30502 | 35621 ft | 534 kts | 61° |
| 2026-05-06 08:53 | 22.07694 | -93.23510 | 35640 ft | 534 kts | 61° |
| 2026-05-06 08:53 | 22.11289 | -93.16472 | 35609 ft | 535 kts | 61° |
| 2026-05-06 08:54 | 22.14877 | -93.09440 | 35652 ft | 534 kts | 61° |
| 2026-05-06 08:54 | 22.18440 | -93.02446 | 35654 ft | 535 kts | 61° |
| 2026-05-06 08:55 | 22.22027 | -92.95395 | 35676 ft | 534 kts | 61° |
| 2026-05-06 08:55 | 22.25586 | -92.88392 | 35726 ft | 534 kts | 61° |
| 2026-05-06 08:56 | 22.28561 | -92.82528 | 35730 ft | 534 kts | 61° |
| 2026-05-06 08:56 | 22.32135 | -92.75476 | 35724 ft | 534 kts | 61° |
| 2026-05-06 08:57 | 22.35682 | -92.68470 | 35728 ft | 535 kts | 61° |
| 2026-05-06 08:57 | 22.39249 | -92.61413 | 35724 ft | 535 kts | 61° |
| 2026-05-06 08:58 | 22.42828 | -92.54320 | 35735 ft | 535 kts | 61° |
| 2026-05-06 08:58 | 22.46372 | -92.47242 | 35752 ft | 535 kts | 61° |
| 2026-05-06 08:59 | 22.49820 | -92.40169 | 35848 ft | 533 kts | 62° |
| 2026-05-06 08:59 | 22.53274 | -92.33058 | 35841 ft | 533 kts | 62° |
| 2026-05-06 09:00 | 22.56714 | -92.25992 | 35824 ft | 534 kts | 62° |
| 2026-05-06 09:00 | 22.60179 | -92.18879 | 35918 ft | 532 kts | 61° |
| 2026-05-06 09:01 | 22.63635 | -92.11772 | 35920 ft | 532 kts | 61° |
| 2026-05-06 09:01 | 22.67068 | -92.04700 | 35908 ft | 533 kts | 61° |
| 2026-05-06 09:02 | 22.70539 | -91.97601 | 35936 ft | 533 kts | 61° |
| 2026-05-06 09:02 | 22.74032 | -91.90546 | 35880 ft | 534 kts | 61° |
| 2026-05-06 09:03 | 22.77537 | -91.83440 | 35898 ft | 534 kts | 61° |
| 2026-05-06 09:03 | 22.81035 | -91.76325 | 35915 ft | 534 kts | 61° |
| 2026-05-06 09:04 | 22.84544 | -91.69209 | 35862 ft | 535 kts | 61° |
| 2026-05-06 09:04 | 22.88031 | -91.62131 | 35939 ft | 534 kts | 61° |
| 2026-05-06 09:05 | 22.91543 | -91.54987 | 35874 ft | 535 kts | 61° |
| 2026-05-06 09:05 | 22.95026 | -91.47889 | 35858 ft | 536 kts | 61° |
| 2026-05-06 09:06 | 22.98534 | -91.40728 | 35875 ft | 536 kts | 61° |
| 2026-05-06 09:06 | 23.02006 | -91.33620 | 35861 ft | 536 kts | 61° |
| 2026-05-06 09:07 | 23.05498 | -91.26457 | 35877 ft | 536 kts | 61° |
| 2026-05-06 09:07 | 23.08987 | -91.19292 | 35901 ft | 535 kts | 61° |
| 2026-05-06 09:08 | 23.12454 | -91.12164 | 35893 ft | 536 kts | 61° |
| 2026-05-06 09:08 | 23.15947 | -91.04972 | 35894 ft | 536 kts | 61° |
| 2026-05-06 09:09 | 23.19403 | -90.97843 | 35882 ft | 536 kts | 61° |
| 2026-05-06 09:09 | 23.22880 | -90.90662 | 35896 ft | 536 kts | 61° |
| 2026-05-06 09:10 | 23.26360 | -90.83462 | 35892 ft | 536 kts | 61° |
| 2026-05-06 09:10 | 23.29833 | -90.76269 | 35915 ft | 536 kts | 61° |
| 2026-05-06 09:11 | 23.33277 | -90.69128 | 35907 ft | 536 kts | 61° |
| 2026-05-06 09:11 | 23.36750 | -90.61918 | 35895 ft | 537 kts | 61° |
| 2026-05-06 09:12 | 23.40218 | -90.54704 | 35914 ft | 536 kts | 61° |
| 2026-05-06 09:12 | 23.43654 | -90.47546 | 35946 ft | 536 kts | 61° |
| 2026-05-06 09:13 | 23.47112 | -90.40335 | 35933 ft | 536 kts | 61° |
| 2026-05-06 09:13 | 23.50570 | -90.33112 | 35925 ft | 537 kts | 61° |
| 2026-05-06 09:14 | 23.54000 | -90.25936 | 35925 ft | 537 kts | 61° |
| 2026-05-06 09:14 | 23.57456 | -90.18691 | 35966 ft | 536 kts | 61° |
| 2026-05-06 09:15 | 23.60875 | -90.11513 | 35973 ft | 536 kts | 61° |
| 2026-05-06 09:15 | 23.64324 | -90.04263 | 35979 ft | 536 kts | 61° |
| 2026-05-06 09:16 | 23.67736 | -89.97081 | 35956 ft | 537 kts | 61° |
| 2026-05-06 09:16 | 23.71169 | -89.89841 | 35988 ft | 536 kts | 61° |
| 2026-05-06 09:17 | 23.74601 | -89.82592 | 36002 ft | 536 kts | 61° |
| 2026-05-06 09:17 | 23.78008 | -89.75390 | 36007 ft | 536 kts | 61° |
| 2026-05-06 09:18 | 23.81435 | -89.68141 | 36013 ft | 536 kts | 61° |
| 2026-05-06 09:18 | 23.84845 | -89.60915 | 36006 ft | 537 kts | 61° |
| 2026-05-06 09:19 | 23.88264 | -89.53656 | 36012 ft | 536 kts | 61° |
| 2026-05-06 09:19 | 23.91661 | -89.46432 | 36031 ft | 536 kts | 61° |
| 2026-05-06 09:20 | 23.95073 | -89.39168 | 36036 ft | 536 kts | 61° |
| 2026-05-06 09:20 | 23.98485 | -89.31896 | 36046 ft | 536 kts | 61° |
| 2026-05-06 09:21 | 24.01865 | -89.24676 | 36059 ft | 536 kts | 61° |
| 2026-05-06 09:21 | 24.05272 | -89.17388 | 36053 ft | 536 kts | 61° |
| 2026-05-06 09:22 | 24.08653 | -89.10143 | 36056 ft | 537 kts | 61° |
| 2026-05-06 09:22 | 24.12047 | -89.02861 | 36044 ft | 537 kts | 61° |
| 2026-05-06 09:23 | 24.15441 | -88.95564 | 36066 ft | 537 kts | 61° |
| 2026-05-06 09:23 | 24.18834 | -88.88258 | 36072 ft | 537 kts | 61° |
| 2026-05-06 09:24 | 24.22198 | -88.81000 | 36080 ft | 537 kts | 61° |
| 2026-05-06 09:24 | 24.25584 | -88.73684 | 36080 ft | 537 kts | 61° |
| 2026-05-06 09:25 | 24.28967 | -88.66363 | 36078 ft | 537 kts | 61° |
| 2026-05-06 09:25 | 24.32324 | -88.59089 | 36062 ft | 538 kts | 62° |
| 2026-05-06 09:26 | 24.35705 | -88.51750 | 36089 ft | 538 kts | 62° |
| 2026-05-06 09:26 | 24.39071 | -88.44431 | 36109 ft | 538 kts | 62° |
| 2026-05-06 09:27 | 24.42432 | -88.37110 | 36096 ft | 538 kts | 62° |
| 2026-05-06 09:27 | 24.45809 | -88.29744 | 36124 ft | 538 kts | 62° |
| 2026-05-06 09:28 | 24.49189 | -88.22447 | 36121 ft | 538 kts | 59° |
| 2026-05-06 09:28 | 24.53347 | -88.15646 | 36108 ft | 534 kts | 49° |
| 2026-05-06 09:29 | 24.57961 | -88.09279 | 36094 ft | 535 kts | 49° |
| 2026-05-06 09:29 | 24.62589 | -88.02869 | 36113 ft | 535 kts | 49° |
| 2026-05-06 09:30 | 24.67187 | -87.96405 | 36098 ft | 536 kts | 50° |
| 2026-05-06 09:30 | 24.71737 | -87.89968 | 36123 ft | 535 kts | 50° |
| 2026-05-06 09:31 | 24.76322 | -87.83475 | 36123 ft | 536 kts | 50° |
| 2026-05-06 09:31 | 24.80873 | -87.77028 | 36156 ft | 535 kts | 50° |
| 2026-05-06 09:32 | 24.85446 | -87.70543 | 36170 ft | 535 kts | 50° |
| 2026-05-06 09:32 | 24.89995 | -87.64082 | 36183 ft | 535 kts | 49° |
| 2026-05-06 09:33 | 24.94565 | -87.57583 | 36192 ft | 535 kts | 49° |
| 2026-05-06 09:33 | 24.99105 | -87.51118 | 36194 ft | 535 kts | 49° |
| 2026-05-06 09:34 | 25.03665 | -87.44615 | 36198 ft | 536 kts | 49° |
| 2026-05-06 09:34 | 25.08231 | -87.38096 | 36202 ft | 536 kts | 49° |
| 2026-05-06 09:35 | 25.12757 | -87.31629 | 36232 ft | 535 kts | 49° |
| 2026-05-06 09:35 | 25.17316 | -87.25105 | 36244 ft | 535 kts | 49° |
| 2026-05-06 09:36 | 25.21845 | -87.18612 | 36255 ft | 535 kts | 49° |
| 2026-05-06 09:36 | 25.26398 | -87.12076 | 36249 ft | 536 kts | 49° |
| 2026-05-06 09:37 | 25.30955 | -87.05525 | 36285 ft | 535 kts | 49° |
| 2026-05-06 09:37 | 25.35467 | -86.99030 | 36272 ft | 536 kts | 49° |
| 2026-05-06 09:38 | 25.40019 | -86.92470 | 36266 ft | 536 kts | 49° |
| 2026-05-06 09:38 | 25.44556 | -86.85920 | 36274 ft | 536 kts | 49° |
| 2026-05-06 09:39 | 25.49063 | -86.79405 | 36303 ft | 536 kts | 49° |
| 2026-05-06 09:39 | 25.53601 | -86.72837 | 36313 ft | 536 kts | 49° |
| 2026-05-06 09:40 | 25.58127 | -86.66275 | 36316 ft | 536 kts | 49° |
| 2026-05-06 09:40 | 25.64891 | -86.56454 | 36331 ft | 535 kts | 49° |
| 2026-05-06 09:41 | 25.68650 | -86.50987 | 36323 ft | 536 kts | 49° |
| 2026-05-06 09:41 | 25.73182 | -86.44385 | 36343 ft | 535 kts | 49° |
| 2026-05-06 09:42 | 25.77673 | -86.37836 | 36355 ft | 535 kts | 49° |
| 2026-05-06 09:42 | 25.82191 | -86.31238 | 36364 ft | 535 kts | 49° |
| 2026-05-06 09:43 | 25.86673 | -86.24683 | 36367 ft | 535 kts | 49° |
| 2026-05-06 09:43 | 25.91191 | -86.18064 | 36383 ft | 535 kts | 49° |
| 2026-05-06 09:44 | 25.95661 | -86.11507 | 36386 ft | 535 kts | 49° |
| 2026-05-06 09:44 | 26.00163 | -86.04893 | 36390 ft | 535 kts | 49° |
| 2026-05-06 09:45 | 26.04628 | -85.98243 | 36388 ft | 537 kts | 52° |
| 2026-05-06 09:45 | 26.08456 | -85.91119 | 36388 ft | 540 kts | 57° |
| 2026-05-06 09:46 | 26.12113 | -85.83796 | 36391 ft | 540 kts | 57° |
| 2026-05-06 09:46 | 26.15779 | -85.76477 | 36395 ft | 540 kts | 57° |
| 2026-05-06 09:47 | 26.19457 | -85.69215 | 36402 ft | 540 kts | 56° |
| 2026-05-06 09:47 | 26.23159 | -85.61931 | 36413 ft | 540 kts | 56° |
| 2026-05-06 09:48 | 26.26844 | -85.54668 | 36423 ft | 540 kts | 56° |
| 2026-05-06 09:48 | 26.30537 | -85.47371 | 36412 ft | 540 kts | 56° |
| 2026-05-06 09:49 | 26.34228 | -85.40060 | 36440 ft | 540 kts | 56° |
| 2026-05-06 09:49 | 26.37890 | -85.32797 | 36448 ft | 540 kts | 56° |
| 2026-05-06 09:50 | 26.41559 | -85.25508 | 36453 ft | 540 kts | 56° |
| 2026-05-06 09:50 | 26.45234 | -85.18195 | 36458 ft | 540 kts | 56° |
| 2026-05-06 09:51 | 26.48908 | -85.10871 | 36488 ft | 539 kts | 56° |
| 2026-05-06 09:51 | 26.52561 | -85.03579 | 36486 ft | 540 kts | 56° |
| 2026-05-06 09:52 | 26.56231 | -84.96238 | 36490 ft | 540 kts | 56° |
| 2026-05-06 09:52 | 26.59869 | -84.88952 | 36507 ft | 539 kts | 56° |
| 2026-05-06 09:53 | 26.63522 | -84.81622 | 36511 ft | 539 kts | 56° |
| 2026-05-06 09:53 | 26.67176 | -84.74278 | 36517 ft | 539 kts | 56° |
| 2026-05-06 09:54 | 26.70800 | -84.66983 | 36530 ft | 539 kts | 56° |
| 2026-05-06 09:54 | 26.74451 | -84.59619 | 36540 ft | 539 kts | 56° |
| 2026-05-06 09:55 | 26.78069 | -84.52311 | 36547 ft | 539 kts | 56° |
| 2026-05-06 09:55 | 26.81700 | -84.44964 | 36548 ft | 539 kts | 56° |
| 2026-05-06 09:56 | 26.85330 | -84.37607 | 36553 ft | 539 kts | 56° |
| 2026-05-06 09:56 | 26.88960 | -84.30238 | 36555 ft | 539 kts | 56° |
| 2026-05-06 09:57 | 26.92562 | -84.22913 | 36541 ft | 539 kts | 56° |
| 2026-05-06 09:57 | 26.96168 | -84.15566 | 36562 ft | 539 kts | 56° |
| 2026-05-06 09:58 | 26.99782 | -84.08192 | 36572 ft | 539 kts | 56° |
| 2026-05-06 09:58 | 27.03388 | -84.00821 | 36555 ft | 539 kts | 56° |
| 2026-05-06 09:59 | 27.06976 | -83.93474 | 36591 ft | 539 kts | 56° |
| 2026-05-06 09:59 | 27.10574 | -83.86094 | 36606 ft | 538 kts | 56° |
| 2026-05-06 10:00 | 27.14177 | -83.78692 | 36608 ft | 538 kts | 56° |
| 2026-05-06 10:00 | 27.17748 | -83.71342 | 36621 ft | 538 kts | 56° |
| 2026-05-06 10:01 | 27.21331 | -83.63957 | 36627 ft | 538 kts | 56° |
| 2026-05-06 10:01 | 27.24907 | -83.56568 | 36729 ft | 534 kts | 56° |
| 2026-05-06 10:02 | 27.26660 | -83.52938 | 36889 ft | 531 kts | 56° |
| 2026-05-06 10:02 | 27.28431 | -83.49273 | 36940 ft | 530 kts | 56° |
| 2026-05-06 10:02 | 27.31928 | -83.42028 | 37047 ft | 528 kts | 56° |
| 2026-05-06 10:03 | 27.35428 | -83.34765 | 37042 ft | 526 kts | 56° |
| 2026-05-06 10:03 | 27.38915 | -83.27517 | 37051 ft | 525 kts | 55° |
| 2026-05-06 10:04 | 27.42370 | -83.20320 | 37041 ft | 524 kts | 55° |
| 2026-05-06 10:04 | 27.45841 | -83.13080 | 37051 ft | 523 kts | 55° |
| 2026-05-06 10:05 | 27.49295 | -83.05859 | 37050 ft | 522 kts | 55° |
| 2026-05-06 10:05 | 27.52715 | -82.98699 | 37059 ft | 521 kts | 55° |
| 2026-05-06 10:06 | 27.56154 | -82.91490 | 37053 ft | 521 kts | 55° |
| 2026-05-06 10:06 | 27.59587 | -82.84276 | 37057 ft | 520 kts | 55° |
| 2026-05-06 10:07 | 27.62988 | -82.77121 | 37052 ft | 520 kts | 55° |
| 2026-05-06 10:07 | 27.66385 | -82.69960 | 37053 ft | 519 kts | 55° |
| 2026-05-06 10:08 | 27.69797 | -82.62757 | 37046 ft | 519 kts | 55° |
| 2026-05-06 10:08 | 27.73201 | -82.55557 | 37050 ft | 518 kts | 54° |
| 2026-05-06 10:09 | 27.76577 | -82.48403 | 37066 ft | 518 kts | 54° |
| 2026-05-06 10:09 | 27.79965 | -82.41213 | 37054 ft | 517 kts | 54° |
| 2026-05-06 10:10 | 27.83326 | -82.34067 | 37057 ft | 517 kts | 54° |
| 2026-05-06 10:10 | 27.86682 | -82.26921 | 37072 ft | 517 kts | 54° |
| 2026-05-06 10:11 | 27.90049 | -82.19736 | 37082 ft | 517 kts | 54° |
| 2026-05-06 10:11 | 27.93419 | -82.12534 | 37089 ft | 516 kts | 54° |
| 2026-05-06 10:12 | 27.96774 | -82.05351 | 37090 ft | 516 kts | 54° |
| 2026-05-06 10:12 | 28.00096 | -81.98181 | 37089 ft | 517 kts | 55° |
| 2026-05-06 10:13 | 28.03342 | -81.90921 | 37090 ft | 517 kts | 56° |
| 2026-05-06 10:13 | 28.06545 | -81.83676 | 37103 ft | 517 kts | 56° |
| 2026-05-06 10:14 | 28.09774 | -81.76392 | 37096 ft | 517 kts | 55° |
| 2026-05-06 10:14 | 28.13005 | -81.69115 | 37103 ft | 516 kts | 55° |
| 2026-05-06 10:15 | 28.16236 | -81.61836 | 37096 ft | 516 kts | 55° |
| 2026-05-06 10:15 | 28.19442 | -81.54597 | 37084 ft | 516 kts | 55° |
| 2026-05-06 10:16 | 28.22662 | -81.47310 | 37095 ft | 516 kts | 55° |
| 2026-05-06 10:16 | 28.25876 | -81.40024 | 37095 ft | 516 kts | 55° |
| 2026-05-06 10:17 | 28.29070 | -81.32772 | 37094 ft | 516 kts | 55° |
| 2026-05-06 10:17 | 28.32276 | -81.25478 | 37096 ft | 516 kts | 55° |
| 2026-05-06 10:18 | 28.35459 | -81.18222 | 37094 ft | 516 kts | 55° |
| 2026-05-06 10:18 | 28.38662 | -81.10910 | 37092 ft | 516 kts | 55° |
| 2026-05-06 10:19 | 28.41842 | -81.03635 | 37076 ft | 516 kts | 55° |
| 2026-05-06 10:19 | 28.45032 | -80.96325 | 37067 ft | 516 kts | 55° |
| 2026-05-06 10:20 | 28.48217 | -80.89012 | 37062 ft | 516 kts | 56° |
| 2026-05-06 10:20 | 28.51404 | -80.81682 | 37065 ft | 516 kts | 56° |
| 2026-05-06 10:21 | 28.54566 | -80.74397 | 37055 ft | 516 kts | 56° |
| 2026-05-06 10:21 | 28.57750 | -80.67045 | 37063 ft | 517 kts | 56° |
| 2026-05-06 10:22 | 28.60931 | -80.59689 | 37064 ft | 517 kts | 56° |
| 2026-05-06 10:22 | 28.64090 | -80.52368 | 37060 ft | 517 kts | 56° |
| 2026-05-06 10:23 | 28.67262 | -80.45005 | 37058 ft | 518 kts | 56° |
| 2026-05-06 10:23 | 28.70419 | -80.37664 | 37061 ft | 518 kts | 56° |
| 2026-05-06 10:24 | 28.73589 | -80.30276 | 37064 ft | 518 kts | 56° |
| 2026-05-06 10:24 | 28.76759 | -80.22876 | 37070 ft | 519 kts | 56° |
| 2026-05-06 10:25 | 28.79927 | -80.15466 | 37080 ft | 519 kts | 56° |
| 2026-05-06 10:25 | 28.83074 | -80.08093 | 37075 ft | 519 kts | 56° |
| 2026-05-06 10:26 | 28.86237 | -80.00668 | 37083 ft | 520 kts | 56° |
| 2026-05-06 10:26 | 28.89380 | -79.93275 | 37086 ft | 520 kts | 56° |
| 2026-05-06 10:27 | 28.92538 | -79.85833 | 37092 ft | 520 kts | 56° |
| 2026-05-06 10:27 | 28.95697 | -79.78374 | 37090 ft | 521 kts | 56° |
| 2026-05-06 10:28 | 28.98833 | -79.70956 | 37084 ft | 521 kts | 56° |
| 2026-05-06 10:28 | 29.01457 | -79.64736 | 37092 ft | 521 kts | 56° |
| 2026-05-06 10:29 | 29.04607 | -79.57259 | 37091 ft | 521 kts | 56° |
| 2026-05-06 10:29 | 29.07736 | -79.49816 | 37097 ft | 522 kts | 56° |
| 2026-05-06 10:30 | 29.10887 | -79.42305 | 37091 ft | 522 kts | 56° |
| 2026-05-06 10:30 | 29.14008 | -79.34852 | 37092 ft | 522 kts | 56° |
| 2026-05-06 10:31 | 29.17146 | -79.27345 | 37093 ft | 522 kts | 56° |
| 2026-05-06 10:31 | 29.20284 | -79.19822 | 37098 ft | 523 kts | 56° |
| 2026-05-06 10:32 | 29.23127 | -79.12151 | 37085 ft | 533 kts | 65° |
| 2026-05-06 10:32 | 29.25301 | -79.04017 | 37089 ft | 532 kts | 63° |
| 2026-05-06 10:33 | 29.27766 | -78.96029 | 37092 ft | 530 kts | 63° |
| 2026-05-06 10:33 | 29.30192 | -78.88079 | 37096 ft | 531 kts | 63° |
| 2026-05-06 10:34 | 29.32620 | -78.80096 | 37092 ft | 531 kts | 63° |
| 2026-05-06 10:34 | 29.35107 | -78.72121 | 37097 ft | 527 kts | 58° |
| 2026-05-06 10:35 | 29.36705 | -78.68364 | 36736 ft | 518 kts | 52° |
| 2026-05-06 10:35 | 29.38577 | -78.64878 | 36903 ft | 508 kts | 47° |
| 2026-05-06 10:35 | 29.42913 | -78.58731 | 37042 ft | 493 kts | 39° |
| 2026-05-06 10:36 | 29.47542 | -78.52916 | 37088 ft | 492 kts | 39° |
| 2026-05-06 10:36 | 29.52115 | -78.47145 | 37093 ft | 492 kts | 39° |
| 2026-05-06 10:37 | 29.56710 | -78.41277 | 37098 ft | 492 kts | 39° |
| 2026-05-06 10:37 | 29.61261 | -78.35429 | 37095 ft | 492 kts | 39° |
| 2026-05-06 10:38 | 29.65834 | -78.29541 | 37092 ft | 492 kts | 39° |
| 2026-05-06 10:38 | 29.70380 | -78.23683 | 37092 ft | 492 kts | 39° |
| 2026-05-06 10:39 | 29.74951 | -78.17786 | 37092 ft | 492 kts | 39° |
| 2026-05-06 10:39 | 29.79509 | -78.11896 | 37098 ft | 492 kts | 39° |
| 2026-05-06 10:40 | 29.84037 | -78.06037 | 37097 ft | 492 kts | 39° |
| 2026-05-06 10:40 | 29.88595 | -78.00131 | 37097 ft | 492 kts | 39° |
| 2026-05-06 10:41 | 29.93121 | -77.94257 | 37098 ft | 492 kts | 39° |
| 2026-05-06 10:41 | 29.97679 | -77.88332 | 37097 ft | 492 kts | 39° |
| 2026-05-06 10:42 | 30.02207 | -77.82438 | 37098 ft | 492 kts | 39° |
| 2026-05-06 10:42 | 30.06745 | -77.76522 | 37099 ft | 492 kts | 39° |
| 2026-05-06 10:43 | 30.11257 | -77.70631 | 37099 ft | 491 kts | 39° |
| 2026-05-06 10:44 | 30.18058 | -77.61735 | 37102 ft | 491 kts | 39° |
| 2026-05-06 10:44 | 30.22556 | -77.55841 | 37105 ft | 491 kts | 39° |
| 2026-05-06 10:45 | 30.27083 | -77.49898 | 37107 ft | 491 kts | 39° |
| 2026-05-06 10:45 | 30.31582 | -77.43984 | 37103 ft | 491 kts | 39° |
| 2026-05-06 10:46 | 30.36104 | -77.38030 | 37105 ft | 491 kts | 38° |
| 2026-05-06 10:46 | 30.40614 | -77.32084 | 37109 ft | 491 kts | 38° |
| 2026-05-06 10:47 | 30.45095 | -77.26167 | 37107 ft | 491 kts | 38° |
| 2026-05-06 10:47 | 30.49605 | -77.20202 | 37107 ft | 491 kts | 38° |
| 2026-05-06 10:48 | 30.54080 | -77.14274 | 37108 ft | 491 kts | 38° |
| 2026-05-06 10:48 | 30.58586 | -77.08295 | 37108 ft | 490 kts | 38° |
| 2026-05-06 10:49 | 30.63048 | -77.02279 | 37110 ft | 495 kts | 42° |
| 2026-05-06 10:49 | 30.66802 | -76.95469 | 37112 ft | 513 kts | 54° |
| 2026-05-06 10:50 | 30.69865 | -76.87943 | 37120 ft | 515 kts | 55° |
| 2026-05-06 10:50 | 30.72847 | -76.80408 | 37113 ft | 515 kts | 55° |
| 2026-05-06 10:51 | 30.75877 | -76.72840 | 37114 ft | 515 kts | 54° |
| 2026-05-06 10:51 | 30.78930 | -76.65287 | 37124 ft | 515 kts | 54° |
| 2026-05-06 10:52 | 30.81964 | -76.57795 | 37125 ft | 515 kts | 54° |
| 2026-05-06 10:52 | 30.85016 | -76.50238 | 37124 ft | 515 kts | 54° |
| 2026-05-06 10:53 | 30.88041 | -76.42728 | 37121 ft | 515 kts | 54° |
| 2026-05-06 10:53 | 30.91081 | -76.35159 | 37119 ft | 515 kts | 55° |
| 2026-05-06 10:54 | 30.94113 | -76.27595 | 37120 ft | 515 kts | 55° |
| 2026-05-06 10:54 | 30.97127 | -76.20061 | 37118 ft | 515 kts | 55° |
| 2026-05-06 10:55 | 31.00157 | -76.12472 | 37126 ft | 515 kts | 55° |
| 2026-05-06 10:55 | 31.03179 | -76.04887 | 37126 ft | 515 kts | 55° |
| 2026-05-06 10:56 | 31.06176 | -75.97348 | 37124 ft | 515 kts | 56° |
| 2026-05-06 10:56 | 31.09187 | -75.89760 | 37127 ft | 515 kts | 56° |
| 2026-05-06 10:57 | 31.12195 | -75.82161 | 37125 ft | 515 kts | 56° |
| 2026-05-06 10:57 | 31.15179 | -75.74608 | 37127 ft | 515 kts | 56° |
| 2026-05-06 10:58 | 31.18174 | -75.67009 | 37131 ft | 515 kts | 56° |
| 2026-05-06 10:58 | 31.21173 | -75.59386 | 37130 ft | 515 kts | 56° |
| 2026-05-06 10:59 | 31.24151 | -75.51798 | 37132 ft | 515 kts | 56° |
| 2026-05-06 10:59 | 31.27121 | -75.44218 | 37139 ft | 514 kts | 56° |
| 2026-05-06 11:00 | 31.30100 | -75.36597 | 37140 ft | 514 kts | 57° |
| 2026-05-06 11:00 | 31.33054 | -75.29022 | 37141 ft | 514 kts | 57° |
| 2026-05-06 11:01 | 31.36025 | -75.21388 | 37149 ft | 514 kts | 57° |
| 2026-05-06 11:01 | 31.38992 | -75.13749 | 37103 ft | 514 kts | 57° |
| 2026-05-06 11:02 | 31.41935 | -75.06155 | 37138 ft | 514 kts | 57° |
| 2026-05-06 11:02 | 31.44888 | -74.98518 | 37150 ft | 514 kts | 57° |
| 2026-05-06 11:03 | 31.47812 | -74.90942 | 37146 ft | 514 kts | 57° |
| 2026-05-06 11:03 | 31.50757 | -74.83292 | 37146 ft | 514 kts | 57° |
| 2026-05-06 11:04 | 31.53697 | -74.75641 | 37146 ft | 514 kts | 57° |
| 2026-05-06 11:04 | 31.56612 | -74.68037 | 37150 ft | 514 kts | 57° |
| 2026-05-06 11:05 | 31.59538 | -74.60387 | 37156 ft | 513 kts | 57° |
| 2026-05-06 11:05 | 31.62464 | -74.52722 | 37153 ft | 513 kts | 57° |
| 2026-05-06 11:06 | 31.65364 | -74.45107 | 37156 ft | 513 kts | 57° |
| 2026-05-06 11:06 | 31.68277 | -74.37443 | 37153 ft | 513 kts | 58° |
| 2026-05-06 11:07 | 31.71167 | -74.29819 | 37157 ft | 513 kts | 58° |
| 2026-05-06 11:07 | 31.74065 | -74.22159 | 37158 ft | 513 kts | 58° |
| 2026-05-06 11:08 | 31.76960 | -74.14491 | 37161 ft | 513 kts | 58° |
| 2026-05-06 11:08 | 31.79851 | -74.06818 | 37159 ft | 513 kts | 58° |
| 2026-05-06 11:09 | 31.82721 | -73.99180 | 37162 ft | 512 kts | 58° |
| 2026-05-06 11:09 | 31.85603 | -73.91497 | 37161 ft | 512 kts | 58° |
| 2026-05-06 11:10 | 31.88461 | -73.83859 | 37164 ft | 512 kts | 58° |
| 2026-05-06 11:10 | 31.91319 | -73.76203 | 37168 ft | 512 kts | 58° |
| 2026-05-06 11:11 | 31.94185 | -73.68509 | 37175 ft | 512 kts | 58° |
| 2026-05-06 11:11 | 31.97048 | -73.60808 | 37171 ft | 512 kts | 58° |
| 2026-05-06 11:12 | 31.99880 | -73.53172 | 37176 ft | 511 kts | 58° |
| 2026-05-06 11:12 | 32.02728 | -73.45474 | 37178 ft | 511 kts | 58° |
| 2026-05-06 11:13 | 32.05557 | -73.37812 | 37178 ft | 511 kts | 58° |
| 2026-05-06 11:13 | 32.08393 | -73.30114 | 37178 ft | 511 kts | 58° |
| 2026-05-06 11:14 | 32.11228 | -73.22399 | 37182 ft | 511 kts | 58° |
| 2026-05-06 11:14 | 32.14041 | -73.14729 | 37171 ft | 511 kts | 58° |
| 2026-05-06 11:15 | 32.16867 | -73.07005 | 37175 ft | 511 kts | 58° |
| 2026-05-06 11:15 | 32.19685 | -72.99284 | 37183 ft | 511 kts | 58° |
| 2026-05-06 11:16 | 32.22479 | -72.91613 | 37184 ft | 511 kts | 58° |
| 2026-05-06 11:16 | 32.25290 | -72.83878 | 37187 ft | 511 kts | 58° |
| 2026-05-06 11:17 | 32.28078 | -72.76187 | 37192 ft | 511 kts | 58° |
| 2026-05-06 11:17 | 32.30409 | -72.69745 | 37191 ft | 511 kts | 58° |
| 2026-05-06 11:18 | 32.33205 | -72.62000 | 37190 ft | 511 kts | 59° |
| 2026-05-06 11:18 | 32.36000 | -72.54241 | 37190 ft | 512 kts | 59° |
| 2026-05-06 11:19 | 32.38772 | -72.46526 | 37189 ft | 512 kts | 59° |
| 2026-05-06 11:19 | 32.41557 | -72.38757 | 37189 ft | 512 kts | 59° |
| 2026-05-06 11:20 | 32.44788 | -72.29721 | 37192 ft | 512 kts | 59° |
| 2026-05-06 11:20 | 32.47105 | -72.23227 | 37199 ft | 512 kts | 59° |
| 2026-05-06 11:21 | 32.49860 | -72.15488 | 37199 ft | 512 kts | 59° |
| 2026-05-06 11:21 | 32.52632 | -72.07684 | 37196 ft | 512 kts | 59° |
| 2026-05-06 11:22 | 32.55379 | -71.99933 | 37198 ft | 512 kts | 59° |
| 2026-05-06 11:22 | 32.58126 | -71.92163 | 37197 ft | 512 kts | 59° |
| 2026-05-06 11:23 | 32.60882 | -71.84348 | 37203 ft | 512 kts | 59° |
| 2026-05-06 11:23 | 32.63630 | -71.76538 | 37203 ft | 512 kts | 59° |
| 2026-05-06 11:24 | 32.66363 | -71.68753 | 37203 ft | 513 kts | 59° |
| 2026-05-06 11:24 | 32.69103 | -71.60927 | 37207 ft | 512 kts | 59° |
| 2026-05-06 11:25 | 32.71841 | -71.53090 | 37197 ft | 512 kts | 59° |
| 2026-05-06 11:25 | 32.74557 | -71.45298 | 37204 ft | 512 kts | 59° |
| 2026-05-06 11:26 | 32.77285 | -71.37453 | 37211 ft | 512 kts | 59° |
| 2026-05-06 11:26 | 32.79985 | -71.29667 | 37207 ft | 513 kts | 59° |
| 2026-05-06 11:27 | 32.82704 | -71.21810 | 37205 ft | 513 kts | 59° |
| 2026-05-06 11:27 | 32.85403 | -71.13989 | 37206 ft | 513 kts | 60° |
| 2026-05-06 11:28 | 32.88114 | -71.06118 | 37208 ft | 513 kts | 60° |
| 2026-05-06 11:28 | 32.90805 | -70.98282 | 37208 ft | 513 kts | 60° |
| 2026-05-06 11:29 | 32.93504 | -70.90407 | 37213 ft | 513 kts | 60° |
| 2026-05-06 11:29 | 32.96195 | -70.82534 | 37211 ft | 513 kts | 60° |
| 2026-05-06 11:30 | 32.98885 | -70.74646 | 37207 ft | 513 kts | 60° |
| 2026-05-06 11:30 | 33.01550 | -70.66811 | 37210 ft | 513 kts | 60° |
| 2026-05-06 11:31 | 33.04230 | -70.58915 | 37213 ft | 513 kts | 60° |
| 2026-05-06 11:31 | 33.06893 | -70.51048 | 37211 ft | 513 kts | 60° |
| 2026-05-06 11:32 | 33.09560 | -70.43148 | 37213 ft | 513 kts | 60° |
| 2026-05-06 11:32 | 33.12208 | -70.35287 | 37213 ft | 513 kts | 60° |
| 2026-05-06 11:33 | 33.14868 | -70.27370 | 37212 ft | 512 kts | 60° |
| 2026-05-06 11:33 | 33.17503 | -70.19506 | 37209 ft | 512 kts | 60° |
| 2026-05-06 11:34 | 33.20144 | -70.11608 | 37211 ft | 512 kts | 60° |
| 2026-05-06 11:34 | 33.22788 | -70.03680 | 37211 ft | 512 kts | 60° |
| 2026-05-06 11:35 | 33.25421 | -69.95762 | 37212 ft | 512 kts | 60° |
| 2026-05-06 11:35 | 33.28036 | -69.87885 | 37214 ft | 512 kts | 60° |
| 2026-05-06 11:36 | 33.31026 | -69.80242 | 37215 ft | 501 kts | 51° |
| 2026-05-06 11:36 | 33.34939 | -69.73460 | 37219 ft | 492 kts | 45° |
| 2026-05-06 11:37 | 33.39042 | -69.66960 | 37212 ft | 492 kts | 45° |
| 2026-05-06 11:37 | 33.43159 | -69.60389 | 37203 ft | 492 kts | 45° |
| 2026-05-06 11:38 | 33.47251 | -69.53787 | 37205 ft | 492 kts | 45° |
| 2026-05-06 11:38 | 33.51300 | -69.47218 | 37212 ft | 492 kts | 45° |
| 2026-05-06 11:39 | 33.55377 | -69.40589 | 37213 ft | 492 kts | 45° |
| 2026-05-06 11:39 | 33.59427 | -69.33995 | 37213 ft | 492 kts | 45° |
| 2026-05-06 11:40 | 33.63496 | -69.27362 | 37217 ft | 493 kts | 45° |
| 2026-05-06 11:40 | 33.67535 | -69.20764 | 37215 ft | 493 kts | 46° |
| 2026-05-06 11:41 | 33.71593 | -69.14125 | 37219 ft | 493 kts | 46° |
| 2026-05-06 11:41 | 33.75658 | -69.07460 | 37220 ft | 493 kts | 46° |
| 2026-05-06 11:42 | 33.79688 | -69.00843 | 37222 ft | 493 kts | 46° |
| 2026-05-06 11:42 | 33.83744 | -68.94169 | 37214 ft | 493 kts | 46° |
| 2026-05-06 11:43 | 33.87801 | -68.87481 | 37222 ft | 493 kts | 46° |
| 2026-05-06 11:43 | 33.91824 | -68.80838 | 37215 ft | 493 kts | 46° |
| 2026-05-06 11:44 | 33.97894 | -68.70791 | 37210 ft | 494 kts | 46° |
| 2026-05-06 11:44 | 34.01913 | -68.64124 | 37217 ft | 493 kts | 46° |
| 2026-05-06 11:45 | 34.05928 | -68.57451 | 37216 ft | 493 kts | 46° |
| 2026-05-06 11:45 | 34.09962 | -68.50733 | 37226 ft | 493 kts | 46° |
| 2026-05-06 11:46 | 34.13998 | -68.44000 | 37216 ft | 493 kts | 46° |
| 2026-05-06 11:46 | 34.17996 | -68.37318 | 37220 ft | 493 kts | 46° |
| 2026-05-06 11:47 | 34.22012 | -68.30594 | 37226 ft | 493 kts | 46° |
| 2026-05-06 11:47 | 34.26032 | -68.23850 | 37223 ft | 493 kts | 46° |
| 2026-05-06 11:48 | 34.30042 | -68.17109 | 37223 ft | 493 kts | 47° |
| 2026-05-06 11:48 | 34.34030 | -68.10394 | 37220 ft | 493 kts | 47° |
| 2026-05-06 11:49 | 34.38010 | -68.03680 | 37225 ft | 493 kts | 47° |
| 2026-05-06 11:49 | 34.42009 | -67.96920 | 37225 ft | 493 kts | 47° |
| 2026-05-06 11:50 | 34.46002 | -67.90158 | 37224 ft | 493 kts | 47° |
| 2026-05-06 11:50 | 34.49966 | -67.83433 | 37228 ft | 493 kts | 47° |
| 2026-05-06 11:51 | 34.53951 | -67.76660 | 37231 ft | 492 kts | 47° |
| 2026-05-06 11:51 | 34.57932 | -67.69881 | 37224 ft | 492 kts | 47° |
| 2026-05-06 11:52 | 34.61881 | -67.63142 | 37228 ft | 492 kts | 47° |
| 2026-05-06 11:52 | 34.65850 | -67.56357 | 37228 ft | 492 kts | 47° |
| 2026-05-06 11:53 | 34.69797 | -67.49598 | 37228 ft | 492 kts | 47° |
| 2026-05-06 11:53 | 34.73761 | -67.42796 | 37227 ft | 492 kts | 47° |
| 2026-05-06 11:54 | 34.77723 | -67.35983 | 37226 ft | 492 kts | 48° |
| 2026-05-06 11:54 | 34.81648 | -67.29222 | 37231 ft | 492 kts | 48° |
| 2026-05-06 11:55 | 34.85610 | -67.22384 | 37232 ft | 492 kts | 48° |
| 2026-05-06 11:55 | 34.89534 | -67.15599 | 37230 ft | 492 kts | 48° |
| 2026-05-06 11:56 | 34.93482 | -67.08758 | 37235 ft | 492 kts | 48° |
| 2026-05-06 11:56 | 34.97420 | -67.01923 | 37235 ft | 492 kts | 49° |
| 2026-05-06 11:57 | 35.01336 | -66.95111 | 37237 ft | 493 kts | 49° |
| 2026-05-06 11:57 | 35.05290 | -66.88222 | 37237 ft | 493 kts | 49° |
| 2026-05-06 11:58 | 35.09204 | -66.81386 | 37233 ft | 494 kts | 49° |
| 2026-05-06 11:58 | 35.13146 | -66.74490 | 37233 ft | 494 kts | 49° |
| 2026-05-06 11:59 | 35.17067 | -66.67616 | 37234 ft | 494 kts | 50° |
| 2026-05-06 11:59 | 35.21001 | -66.60707 | 37234 ft | 495 kts | 50° |
| 2026-05-06 12:00 | 35.24910 | -66.53827 | 37235 ft | 495 kts | 50° |
| 2026-05-06 12:00 | 35.28840 | -66.46896 | 37236 ft | 495 kts | 50° |
| 2026-05-06 12:01 | 35.32762 | -66.39948 | 37226 ft | 496 kts | 52° |
| 2026-05-06 12:01 | 35.36096 | -66.32483 | 37242 ft | 502 kts | 60° |
| 2026-05-06 12:02 | 35.39042 | -66.24772 | 37225 ft | 503 kts | 60° |
| 2026-05-06 12:02 | 35.42005 | -66.16975 | 37228 ft | 503 kts | 60° |
| 2026-05-06 12:03 | 35.44971 | -66.09253 | 37237 ft | 503 kts | 60° |
| 2026-05-06 12:03 | 35.47970 | -66.01483 | 37234 ft | 503 kts | 60° |
| 2026-05-06 12:04 | 35.50965 | -65.93716 | 37232 ft | 503 kts | 60° |
| 2026-05-06 12:04 | 35.53938 | -65.85983 | 37231 ft | 503 kts | 61° |
| 2026-05-06 12:05 | 35.56925 | -65.78190 | 37235 ft | 504 kts | 61° |
| 2026-05-06 12:05 | 35.59893 | -65.70428 | 37234 ft | 504 kts | 61° |
| 2026-05-06 12:06 | 35.62374 | -65.63924 | 37233 ft | 504 kts | 61° |
| 2026-05-06 12:06 | 35.65353 | -65.56097 | 37234 ft | 504 kts | 62° |
| 2026-05-06 12:07 | 35.68308 | -65.48316 | 37234 ft | 504 kts | 62° |
| 2026-05-06 12:07 | 35.71276 | -65.40481 | 37227 ft | 505 kts | 62° |
| 2026-05-06 12:08 | 35.74240 | -65.32636 | 37232 ft | 505 kts | 62° |
| 2026-05-06 12:08 | 35.77182 | -65.24832 | 37227 ft | 505 kts | 62° |
| 2026-05-06 12:09 | 35.80149 | -65.16941 | 37228 ft | 505 kts | 63° |
| 2026-05-06 12:09 | 35.83081 | -65.09123 | 37229 ft | 505 kts | 63° |
| 2026-05-06 12:10 | 35.86039 | -65.01218 | 37234 ft | 506 kts | 63° |
| 2026-05-06 12:10 | 35.88974 | -64.93354 | 37229 ft | 506 kts | 63° |
| 2026-05-06 12:11 | 35.91895 | -64.85507 | 37229 ft | 506 kts | 63° |
| 2026-05-06 12:11 | 35.94831 | -64.77602 | 37232 ft | 506 kts | 63° |
| 2026-05-06 12:12 | 35.97768 | -64.69673 | 37231 ft | 506 kts | 64° |
| 2026-05-06 12:12 | 36.00692 | -64.61760 | 37230 ft | 507 kts | 64° |
| 2026-05-06 12:13 | 36.03600 | -64.53868 | 37232 ft | 507 kts | 64° |
| 2026-05-06 12:13 | 36.06525 | -64.45912 | 37231 ft | 507 kts | 64° |
| 2026-05-06 12:14 | 36.09428 | -64.37998 | 37233 ft | 507 kts | 64° |
| 2026-05-06 12:14 | 36.12340 | -64.30036 | 37234 ft | 508 kts | 65° |
| 2026-05-06 12:15 | 36.15236 | -64.22099 | 37235 ft | 508 kts | 65° |
| 2026-05-06 12:15 | 36.18145 | -64.14105 | 37235 ft | 508 kts | 65° |
| 2026-05-06 12:16 | 36.21029 | -64.06160 | 37232 ft | 509 kts | 65° |
| 2026-05-06 12:16 | 36.23932 | -63.98142 | 37233 ft | 509 kts | 66° |
| 2026-05-06 12:17 | 36.26827 | -63.90123 | 37233 ft | 510 kts | 66° |
| 2026-05-06 12:17 | 36.29720 | -63.82092 | 37233 ft | 510 kts | 66° |
| 2026-05-06 12:18 | 36.32611 | -63.74046 | 37236 ft | 510 kts | 66° |
| 2026-05-06 12:18 | 36.35483 | -63.66029 | 37233 ft | 511 kts | 66° |
| 2026-05-06 12:19 | 36.38366 | -63.57963 | 37236 ft | 511 kts | 67° |
| 2026-05-06 12:19 | 36.41248 | -63.49878 | 37234 ft | 512 kts | 67° |
| 2026-05-06 12:20 | 36.44117 | -63.41806 | 37234 ft | 512 kts | 67° |
| 2026-05-06 12:20 | 36.46993 | -63.33695 | 37237 ft | 513 kts | 68° |
| 2026-05-06 12:21 | 36.49868 | -63.25565 | 37233 ft | 514 kts | 68° |
| 2026-05-06 12:21 | 36.52743 | -63.17412 | 37234 ft | 514 kts | 68° |
| 2026-05-06 12:22 | 36.55597 | -63.09299 | 37234 ft | 515 kts | 68° |
| 2026-05-06 12:22 | 36.58468 | -63.01114 | 37230 ft | 515 kts | 68° |
| 2026-05-06 12:23 | 36.61319 | -62.92966 | 37235 ft | 516 kts | 69° |
| 2026-05-06 12:23 | 36.64187 | -62.84745 | 37236 ft | 516 kts | 69° |
| 2026-05-06 12:24 | 36.67029 | -62.76579 | 37234 ft | 517 kts | 69° |
| 2026-05-06 12:24 | 36.69886 | -62.68347 | 37233 ft | 517 kts | 69° |
| 2026-05-06 12:25 | 36.72745 | -62.60086 | 37237 ft | 518 kts | 69° |
| 2026-05-06 12:25 | 36.75581 | -62.51867 | 37230 ft | 518 kts | 69° |
| 2026-05-06 12:26 | 36.78435 | -62.43577 | 37231 ft | 519 kts | 70° |
| 2026-05-06 12:26 | 36.81262 | -62.35341 | 37232 ft | 519 kts | 70° |
| 2026-05-06 12:27 | 36.84103 | -62.27041 | 37239 ft | 520 kts | 70° |
| 2026-05-06 12:27 | 36.86945 | -62.18713 | 37234 ft | 520 kts | 70° |
| 2026-05-06 12:28 | 36.89781 | -62.10382 | 37231 ft | 521 kts | 70° |
| 2026-05-06 12:28 | 36.92603 | -62.02068 | 37230 ft | 522 kts | 71° |
| 2026-05-06 12:29 | 36.95424 | -61.93736 | 37234 ft | 522 kts | 71° |
| 2026-05-06 12:29 | 36.98250 | -61.85363 | 37253 ft | 523 kts | 71° |
| 2026-05-06 12:30 | 37.01077 | -61.76964 | 37245 ft | 523 kts | 71° |
| 2026-05-06 12:30 | 37.03901 | -61.68548 | 37238 ft | 524 kts | 72° |
| 2026-05-06 12:31 | 37.06710 | -61.60156 | 37244 ft | 524 kts | 72° |
| 2026-05-06 12:31 | 37.09525 | -61.51721 | 37245 ft | 525 kts | 72° |
| 2026-05-06 12:32 | 37.12343 | -61.43252 | 37246 ft | 526 kts | 72° |
| 2026-05-06 12:32 | 37.15136 | -61.34836 | 37250 ft | 526 kts | 73° |
| 2026-05-06 12:33 | 37.17946 | -61.26343 | 37249 ft | 527 kts | 73° |
| 2026-05-06 12:33 | 37.20757 | -61.17821 | 37248 ft | 528 kts | 73° |
| 2026-05-06 12:34 | 37.23547 | -61.09339 | 37252 ft | 528 kts | 73° |
| 2026-05-06 12:34 | 37.26354 | -61.00782 | 37255 ft | 529 kts | 73° |
| 2026-05-06 12:35 | 37.29135 | -60.92276 | 37254 ft | 530 kts | 73° |
| 2026-05-06 12:35 | 37.31935 | -60.83689 | 37258 ft | 531 kts | 73° |
| 2026-05-06 12:36 | 37.34733 | -60.75082 | 37259 ft | 532 kts | 73° |
| 2026-05-06 12:36 | 37.37527 | -60.66462 | 37259 ft | 533 kts | 73° |
| 2026-05-06 12:37 | 37.40303 | -60.57871 | 37257 ft | 533 kts | 73° |
| 2026-05-06 12:37 | 37.43097 | -60.49201 | 37266 ft | 534 kts | 73° |
| 2026-05-06 12:38 | 37.45886 | -60.40517 | 37273 ft | 535 kts | 73° |
| 2026-05-06 12:38 | 37.48677 | -60.31803 | 37277 ft | 536 kts | 73° |
| 2026-05-06 12:39 | 37.51460 | -60.23086 | 37272 ft | 537 kts | 73° |
| 2026-05-06 12:39 | 37.54228 | -60.14389 | 37275 ft | 538 kts | 74° |
| 2026-05-06 12:40 | 37.57014 | -60.05609 | 37276 ft | 539 kts | 74° |
| 2026-05-06 12:40 | 37.59793 | -59.96825 | 37276 ft | 539 kts | 74° |
| 2026-05-06 12:41 | 37.62553 | -59.88074 | 37280 ft | 540 kts | 74° |
| 2026-05-06 12:41 | 37.65330 | -59.79241 | 37282 ft | 541 kts | 74° |
| 2026-05-06 12:42 | 37.68106 | -59.70386 | 37289 ft | 542 kts | 74° |
| 2026-05-06 12:42 | 37.70864 | -59.61558 | 37286 ft | 543 kts | 74° |
| 2026-05-06 12:43 | 37.73637 | -59.52654 | 37288 ft | 544 kts | 74° |
| 2026-05-06 12:43 | 37.76405 | -59.43739 | 37292 ft | 545 kts | 74° |
| 2026-05-06 12:44 | 37.79153 | -59.34860 | 37293 ft | 546 kts | 75° |
| 2026-05-06 12:44 | 37.81923 | -59.25879 | 37299 ft | 547 kts | 75° |
| 2026-05-06 12:45 | 37.84689 | -59.16885 | 37298 ft | 548 kts | 75° |
| 2026-05-06 12:46 | 37.88810 | -59.03432 | 37298 ft | 549 kts | 75° |
| 2026-05-06 12:46 | 37.91570 | -58.94382 | 37302 ft | 550 kts | 75° |
| 2026-05-06 12:47 | 37.94329 | -58.85309 | 37305 ft | 551 kts | 75° |
| 2026-05-06 12:47 | 37.97069 | -58.76269 | 37305 ft | 552 kts | 75° |
| 2026-05-06 12:48 | 37.99823 | -58.67151 | 37306 ft | 553 kts | 75° |
| 2026-05-06 12:48 | 38.02572 | -58.58019 | 37305 ft | 554 kts | 75° |
| 2026-05-06 12:49 | 38.05298 | -58.48937 | 37309 ft | 555 kts | 75° |
| 2026-05-06 12:49 | 38.08047 | -58.39744 | 37310 ft | 556 kts | 75° |
| 2026-05-06 12:50 | 38.10776 | -58.30589 | 37315 ft | 556 kts | 75° |
| 2026-05-06 12:50 | 38.13518 | -58.21359 | 37317 ft | 557 kts | 75° |
| 2026-05-06 12:51 | 38.16253 | -58.12120 | 37320 ft | 558 kts | 75° |
| 2026-05-06 12:51 | 38.18968 | -58.02920 | 37314 ft | 559 kts | 75° |
| 2026-05-06 12:52 | 38.21691 | -57.93658 | 37321 ft | 560 kts | 75° |
| 2026-05-06 12:52 | 38.24414 | -57.84368 | 37321 ft | 561 kts | 75° |
| 2026-05-06 12:53 | 38.26673 | -57.76633 | 37322 ft | 561 kts | 75° |
| 2026-05-06 12:53 | 38.29397 | -57.67279 | 37324 ft | 562 kts | 75° |
| 2026-05-06 12:54 | 38.32102 | -57.57956 | 37326 ft | 563 kts | 75° |
| 2026-05-06 12:54 | 38.34815 | -57.48578 | 37329 ft | 564 kts | 75° |
| 2026-05-06 12:55 | 38.37508 | -57.39232 | 37328 ft | 565 kts | 75° |
| 2026-05-06 12:55 | 38.40216 | -57.29801 | 37330 ft | 565 kts | 75° |
| 2026-05-06 12:56 | 38.42907 | -57.20396 | 37334 ft | 566 kts | 75° |
| 2026-05-06 12:56 | 38.45609 | -57.10920 | 37339 ft | 567 kts | 75° |
| 2026-05-06 12:57 | 38.48290 | -57.01482 | 37344 ft | 568 kts | 75° |
| 2026-05-06 12:57 | 38.50980 | -56.91982 | 37346 ft | 569 kts | 75° |
| 2026-05-06 12:58 | 38.53663 | -56.82468 | 37351 ft | 569 kts | 75° |
| 2026-05-06 12:58 | 38.56327 | -56.72990 | 37352 ft | 570 kts | 74° |
| 2026-05-06 12:59 | 38.59004 | -56.63431 | 37359 ft | 571 kts | 74° |
| 2026-05-06 12:59 | 38.61672 | -56.53868 | 37358 ft | 571 kts | 74° |
| 2026-05-06 13:00 | 38.64326 | -56.44322 | 37360 ft | 572 kts | 74° |
| 2026-05-06 13:00 | 38.66986 | -56.34719 | 37363 ft | 573 kts | 74° |
| 2026-05-06 13:01 | 38.69643 | -56.25091 | 37362 ft | 573 kts | 74° |
| 2026-05-06 13:01 | 38.72281 | -56.15495 | 37355 ft | 574 kts | 74° |
| 2026-05-06 13:02 | 38.74929 | -56.05830 | 37376 ft | 575 kts | 74° |
| 2026-05-06 13:02 | 38.77569 | -55.96155 | 37380 ft | 575 kts | 74° |
| 2026-05-06 13:03 | 38.80191 | -55.86511 | 37364 ft | 576 kts | 75° |
| 2026-05-06 13:03 | 38.82820 | -55.76802 | 37379 ft | 576 kts | 75° |
| 2026-05-06 13:04 | 38.85448 | -55.67061 | 37365 ft | 577 kts | 75° |
| 2026-05-06 13:04 | 38.88055 | -55.57363 | 37369 ft | 578 kts | 75° |
| 2026-05-06 13:05 | 38.90677 | -55.47570 | 37381 ft | 578 kts | 75° |
| 2026-05-06 13:05 | 38.93275 | -55.37827 | 37387 ft | 579 kts | 75° |
| 2026-05-06 13:06 | 38.95885 | -55.28004 | 37383 ft | 580 kts | 75° |
| 2026-05-06 13:06 | 38.98490 | -55.18163 | 37385 ft | 580 kts | 75° |
| 2026-05-06 13:07 | 39.01071 | -55.08372 | 37380 ft | 581 kts | 75° |
| 2026-05-06 13:07 | 39.03650 | -54.98552 | 37386 ft | 582 kts | 75° |
| 2026-05-06 13:08 | 39.06238 | -54.88658 | 37391 ft | 582 kts | 74° |
| 2026-05-06 13:08 | 39.08819 | -54.78750 | 37394 ft | 582 kts | 74° |
| 2026-05-06 13:09 | 39.11375 | -54.68898 | 37401 ft | 583 kts | 74° |
| 2026-05-06 13:09 | 39.13938 | -54.58983 | 37399 ft | 583 kts | 74° |
| 2026-05-06 13:10 | 39.16495 | -54.49051 | 37400 ft | 583 kts | 74° |
| 2026-05-06 13:10 | 39.19027 | -54.39175 | 37400 ft | 584 kts | 74° |
| 2026-05-06 13:11 | 39.21577 | -54.29188 | 37404 ft | 584 kts | 74° |
| 2026-05-06 13:11 | 39.24099 | -54.19271 | 37401 ft | 584 kts | 74° |
| 2026-05-06 13:12 | 39.26632 | -54.09273 | 37412 ft | 585 kts | 74° |
| 2026-05-06 13:12 | 39.29147 | -53.99302 | 37406 ft | 585 kts | 74° |
| 2026-05-06 13:13 | 39.31664 | -53.89282 | 37411 ft | 585 kts | 74° |
| 2026-05-06 13:13 | 39.34155 | -53.79327 | 37419 ft | 586 kts | 74° |
| 2026-05-06 13:14 | 39.36657 | -53.69284 | 37416 ft | 586 kts | 73° |
| 2026-05-06 13:14 | 39.39129 | -53.59319 | 37427 ft | 586 kts | 73° |
| 2026-05-06 13:15 | 39.41623 | -53.49225 | 37425 ft | 586 kts | 73° |
| 2026-05-06 13:15 | 39.44085 | -53.39219 | 37428 ft | 586 kts | 73° |
| 2026-05-06 13:16 | 39.46550 | -53.29159 | 37429 ft | 587 kts | 73° |
| 2026-05-06 13:16 | 39.49018 | -53.19044 | 37429 ft | 587 kts | 73° |
| 2026-05-06 13:17 | 39.51457 | -53.09005 | 37435 ft | 587 kts | 73° |
| 2026-05-06 13:17 | 39.53901 | -52.98903 | 37432 ft | 587 kts | 73° |
| 2026-05-06 13:18 | 39.56342 | -52.88767 | 37442 ft | 587 kts | 73° |
| 2026-05-06 13:18 | 39.58754 | -52.78708 | 37437 ft | 587 kts | 73° |
| 2026-05-06 13:19 | 39.61174 | -52.68576 | 37439 ft | 587 kts | 73° |
| 2026-05-06 13:19 | 39.63576 | -52.58476 | 37443 ft | 587 kts | 73° |
| 2026-05-06 13:20 | 39.65976 | -52.48335 | 37446 ft | 587 kts | 73° |
| 2026-05-06 13:20 | 39.68367 | -52.38192 | 37447 ft | 587 kts | 73° |
| 2026-05-06 13:21 | 39.70739 | -52.28084 | 37449 ft | 587 kts | 73° |
| 2026-05-06 13:21 | 39.73106 | -52.17956 | 37449 ft | 587 kts | 73° |
| 2026-05-06 13:22 | 39.75472 | -52.07781 | 37452 ft | 587 kts | 73° |
| 2026-05-06 13:22 | 39.77831 | -51.97598 | 37451 ft | 587 kts | 73° |
| 2026-05-06 13:23 | 39.80178 | -51.87415 | 37455 ft | 587 kts | 73° |
| 2026-05-06 13:23 | 39.82502 | -51.77291 | 37455 ft | 587 kts | 73° |
| 2026-05-06 13:24 | 39.84832 | -51.67093 | 37460 ft | 587 kts | 73° |
| 2026-05-06 13:24 | 39.87158 | -51.56867 | 37458 ft | 588 kts | 73° |
| 2026-05-06 13:25 | 39.89459 | -51.46707 | 37461 ft | 588 kts | 73° |
| 2026-05-06 13:25 | 39.91763 | -51.36482 | 37460 ft | 588 kts | 73° |
| 2026-05-06 13:26 | 39.94061 | -51.26240 | 37465 ft | 588 kts | 73° |
| 2026-05-06 13:26 | 39.96333 | -51.16070 | 37465 ft | 588 kts | 73° |
| 2026-05-06 13:27 | 39.98611 | -51.05824 | 37462 ft | 588 kts | 73° |
| 2026-05-06 13:27 | 40.00884 | -50.95551 | 37466 ft | 588 kts | 73° |
| 2026-05-06 13:28 | 40.03148 | -50.85274 | 37465 ft | 588 kts | 73° |
| 2026-05-06 13:28 | 40.05388 | -50.75057 | 37471 ft | 588 kts | 73° |
| 2026-05-06 13:29 | 40.07629 | -50.64788 | 37470 ft | 588 kts | 73° |
| 2026-05-06 13:29 | 40.09869 | -50.54474 | 37475 ft | 588 kts | 73° |
| 2026-05-06 13:30 | 40.12082 | -50.44233 | 37475 ft | 588 kts | 73° |
| 2026-05-06 13:30 | 40.14296 | -50.33944 | 37477 ft | 588 kts | 73° |
| 2026-05-06 13:31 | 40.16505 | -50.23629 | 37478 ft | 588 kts | 73° |
| 2026-05-06 13:31 | 40.18701 | -50.13322 | 37475 ft | 588 kts | 73° |
| 2026-05-06 13:32 | 40.20877 | -50.03057 | 37481 ft | 588 kts | 73° |
| 2026-05-06 13:32 | 40.23054 | -49.92746 | 37482 ft | 588 kts | 73° |
| 2026-05-06 13:33 | 40.25229 | -49.82388 | 37482 ft | 588 kts | 73° |
| 2026-05-06 13:33 | 40.27379 | -49.72100 | 37485 ft | 588 kts | 73° |
| 2026-05-06 13:34 | 40.29529 | -49.61764 | 37481 ft | 587 kts | 73° |
| 2026-05-06 13:34 | 40.31655 | -49.51490 | 37485 ft | 587 kts | 73° |
| 2026-05-06 13:35 | 40.33787 | -49.41136 | 37490 ft | 587 kts | 72° |
| 2026-05-06 13:35 | 40.35910 | -49.30780 | 37487 ft | 587 kts | 73° |
| 2026-05-06 13:36 | 40.38006 | -49.20498 | 37493 ft | 587 kts | 72° |
| 2026-05-06 13:36 | 40.40106 | -49.10146 | 37489 ft | 587 kts | 72° |
| 2026-05-06 13:37 | 40.42201 | -48.99767 | 37497 ft | 587 kts | 72° |
| 2026-05-06 13:37 | 40.44275 | -48.89446 | 37500 ft | 587 kts | 72° |
| 2026-05-06 13:38 | 40.46348 | -48.79071 | 37502 ft | 587 kts | 72° |
| 2026-05-06 13:38 | 40.48398 | -48.68760 | 37496 ft | 587 kts | 72° |
| 2026-05-06 13:39 | 40.50453 | -48.58369 | 37497 ft | 587 kts | 72° |
| 2026-05-06 13:39 | 40.52499 | -48.47973 | 37501 ft | 587 kts | 72° |
| 2026-05-06 13:40 | 40.54522 | -48.37640 | 37500 ft | 587 kts | 72° |
| 2026-05-06 13:40 | 40.56211 | -48.28971 | 37495 ft | 587 kts | 73° |
| 2026-05-06 13:41 | 40.58228 | -48.18571 | 37504 ft | 586 kts | 73° |
| 2026-05-06 13:41 | 40.60240 | -48.08141 | 37493 ft | 586 kts | 73° |
| 2026-05-06 13:42 | 40.62229 | -47.97775 | 37504 ft | 586 kts | 73° |
| 2026-05-06 13:42 | 40.64221 | -47.87342 | 37502 ft | 586 kts | 73° |
| 2026-05-06 13:43 | 40.66193 | -47.76957 | 37491 ft | 586 kts | 72° |
| 2026-05-06 13:43 | 40.68164 | -47.66522 | 37501 ft | 586 kts | 72° |
| 2026-05-06 13:44 | 40.70114 | -47.56135 | 37501 ft | 586 kts | 72° |
| 2026-05-06 13:44 | 40.72071 | -47.45665 | 37499 ft | 586 kts | 72° |
| 2026-05-06 13:45 | 40.74003 | -47.35265 | 37499 ft | 586 kts | 72° |
| 2026-05-06 13:45 | 40.76900 | -47.19571 | 37496 ft | 586 kts | 72° |
| 2026-05-06 13:46 | 40.78804 | -47.09186 | 37500 ft | 586 kts | 72° |
| 2026-05-06 13:46 | 40.80714 | -46.98708 | 37499 ft | 586 kts | 72° |
| 2026-05-06 13:47 | 40.82603 | -46.88288 | 37501 ft | 586 kts | 72° |
| 2026-05-06 13:47 | 40.84492 | -46.77813 | 37496 ft | 586 kts | 72° |
| 2026-05-06 13:48 | 40.86373 | -46.67323 | 37499 ft | 585 kts | 72° |
| 2026-05-06 13:48 | 40.88241 | -46.56845 | 37502 ft | 585 kts | 72° |
| 2026-05-06 13:49 | 40.90089 | -46.46422 | 37500 ft | 585 kts | 72° |
| 2026-05-06 13:49 | 40.91930 | -46.35976 | 37497 ft | 585 kts | 72° |
| 2026-05-06 13:50 | 40.93774 | -46.25455 | 37503 ft | 585 kts | 72° |
| 2026-05-06 13:50 | 40.95591 | -46.15030 | 37500 ft | 585 kts | 72° |
| 2026-05-06 13:51 | 40.97411 | -46.04528 | 37499 ft | 585 kts | 72° |
| 2026-05-06 13:51 | 40.99224 | -45.94002 | 37500 ft | 585 kts | 72° |
| 2026-05-06 13:52 | 41.01017 | -45.83536 | 37502 ft | 585 kts | 72° |
| 2026-05-06 13:52 | 41.02797 | -45.73083 | 37502 ft | 584 kts | 72° |
| 2026-05-06 13:53 | 41.04577 | -45.62566 | 37501 ft | 584 kts | 72° |
| 2026-05-06 13:53 | 41.06350 | -45.52031 | 37498 ft | 584 kts | 72° |
| 2026-05-06 13:54 | 41.08099 | -45.41577 | 37501 ft | 584 kts | 72° |
| 2026-05-06 13:54 | 41.09849 | -45.31052 | 37495 ft | 583 kts | 72° |
| 2026-05-06 13:55 | 41.11585 | -45.20543 | 37501 ft | 583 kts | 72° |
| 2026-05-06 13:55 | 41.13305 | -45.10078 | 37499 ft | 582 kts | 72° |
| 2026-05-06 13:56 | 41.15022 | -44.99565 | 37498 ft | 582 kts | 72° |
| 2026-05-06 13:56 | 41.16717 | -44.89120 | 37494 ft | 581 kts | 72° |
| 2026-05-06 13:57 | 41.18412 | -44.78609 | 37500 ft | 581 kts | 73° |
| 2026-05-06 13:57 | 41.20088 | -44.68159 | 37497 ft | 580 kts | 73° |
| 2026-05-06 13:58 | 41.21760 | -44.57666 | 37501 ft | 580 kts | 73° |
| 2026-05-06 13:58 | 41.23422 | -44.47173 | 37493 ft | 579 kts | 73° |
| 2026-05-06 13:59 | 41.25072 | -44.36682 | 37487 ft | 579 kts | 73° |
| 2026-05-06 13:59 | 41.26702 | -44.26259 | 37491 ft | 578 kts | 73° |
| 2026-05-06 14:00 | 41.28331 | -44.15777 | 37498 ft | 578 kts | 73° |
| 2026-05-06 14:00 | 41.29948 | -44.05307 | 37491 ft | 577 kts | 73° |
| 2026-05-06 14:01 | 41.31548 | -43.94880 | 37491 ft | 577 kts | 73° |
| 2026-05-06 14:01 | 41.33142 | -43.84427 | 37487 ft | 576 kts | 73° |
| 2026-05-06 14:02 | 41.34717 | -43.74029 | 37488 ft | 575 kts | 73° |
| 2026-05-06 14:02 | 41.36293 | -43.63559 | 37493 ft | 575 kts | 73° |
| 2026-05-06 14:03 | 41.37856 | -43.53103 | 37489 ft | 574 kts | 73° |
| 2026-05-06 14:03 | 41.39397 | -43.42731 | 37484 ft | 573 kts | 73° |
| 2026-05-06 14:04 | 41.40936 | -43.32299 | 37490 ft | 573 kts | 73° |
| 2026-05-06 14:04 | 41.42463 | -43.21885 | 37490 ft | 572 kts | 74° |
| 2026-05-06 14:05 | 41.43979 | -43.11475 | 37489 ft | 571 kts | 74° |
| 2026-05-06 14:05 | 41.45476 | -43.01129 | 37488 ft | 570 kts | 74° |
| 2026-05-06 14:06 | 41.46968 | -42.90749 | 37488 ft | 569 kts | 74° |
| 2026-05-06 14:06 | 41.48450 | -42.80365 | 37476 ft | 569 kts | 74° |
| 2026-05-06 14:07 | 41.49912 | -42.70052 | 37475 ft | 568 kts | 74° |
| 2026-05-06 14:07 | 41.51375 | -42.59666 | 37476 ft | 568 kts | 74° |
| 2026-05-06 14:08 | 41.52824 | -42.49309 | 37470 ft | 567 kts | 74° |
| 2026-05-06 14:08 | 41.54254 | -42.39017 | 37472 ft | 567 kts | 74° |
| 2026-05-06 14:09 | 41.55683 | -42.28654 | 37472 ft | 566 kts | 74° |
| 2026-05-06 14:09 | 41.57102 | -42.18297 | 37473 ft | 566 kts | 74° |
| 2026-05-06 14:10 | 41.58498 | -42.08032 | 37469 ft | 565 kts | 75° |
| 2026-05-06 14:10 | 41.59899 | -41.97663 | 37468 ft | 564 kts | 75° |
| 2026-05-06 14:11 | 41.61277 | -41.87389 | 37461 ft | 563 kts | 75° |
| 2026-05-06 14:11 | 41.62653 | -41.77061 | 37458 ft | 563 kts | 75° |
| 2026-05-06 14:12 | 41.64013 | -41.66769 | 37457 ft | 562 kts | 75° |
| 2026-05-06 14:12 | 41.65357 | -41.56534 | 37457 ft | 561 kts | 75° |
| 2026-05-06 14:13 | 41.66698 | -41.46249 | 37453 ft | 560 kts | 75° |
| 2026-05-06 14:13 | 41.68016 | -41.36060 | 37466 ft | 558 kts | 75° |
| 2026-05-06 14:14 | 41.69335 | -41.25794 | 37450 ft | 557 kts | 75° |
| 2026-05-06 14:14 | 41.70632 | -41.15618 | 37447 ft | 556 kts | 75° |
| 2026-05-06 14:15 | 41.71924 | -41.05415 | 37444 ft | 555 kts | 75° |
| 2026-05-06 14:15 | 41.73198 | -40.95276 | 37440 ft | 554 kts | 75° |
| 2026-05-06 14:16 | 41.74468 | -40.85101 | 37442 ft | 553 kts | 75° |
| 2026-05-06 14:16 | 41.75727 | -40.74929 | 37440 ft | 552 kts | 75° |
| 2026-05-06 14:17 | 41.76967 | -40.64838 | 37437 ft | 551 kts | 75° |
| 2026-05-06 14:17 | 41.78205 | -40.54688 | 37440 ft | 551 kts | 76° |
| 2026-05-06 14:18 | 41.79433 | -40.44539 | 37432 ft | 550 kts | 76° |
| 2026-05-06 14:18 | 41.80646 | -40.34446 | 37431 ft | 550 kts | 76° |
| 2026-05-06 14:19 | 41.81856 | -40.24291 | 37429 ft | 550 kts | 76° |
| 2026-05-06 14:19 | 41.83048 | -40.14216 | 37435 ft | 550 kts | 76° |
| 2026-05-06 14:20 | 41.84238 | -40.04071 | 37431 ft | 550 kts | 76° |
| 2026-05-06 14:20 | 41.85413 | -39.93982 | 37421 ft | 550 kts | 76° |
| 2026-05-06 14:21 | 41.86584 | -39.83836 | 37417 ft | 549 kts | 76° |
| 2026-05-06 14:21 | 41.87746 | -39.73700 | 37414 ft | 549 kts | 76° |
| 2026-05-06 14:22 | 41.88893 | -39.63608 | 37410 ft | 549 kts | 76° |
| 2026-05-06 14:22 | 41.90038 | -39.53451 | 37410 ft | 549 kts | 76° |
| 2026-05-06 14:23 | 41.91174 | -39.43291 | 37410 ft | 549 kts | 76° |
| 2026-05-06 14:23 | 41.92293 | -39.33194 | 37403 ft | 549 kts | 76° |
| 2026-05-06 14:24 | 41.93409 | -39.23047 | 37401 ft | 548 kts | 76° |
| 2026-05-06 14:24 | 41.94508 | -39.12972 | 37402 ft | 548 kts | 76° |
| 2026-05-06 14:25 | 41.95603 | -39.02843 | 37398 ft | 547 kts | 76° |
| 2026-05-06 14:25 | 41.96690 | -38.92715 | 37397 ft | 546 kts | 76° |
| 2026-05-06 14:26 | 41.97758 | -38.82663 | 37393 ft | 546 kts | 76° |
| 2026-05-06 14:26 | 41.98825 | -38.72543 | 37384 ft | 545 kts | 76° |
| 2026-05-06 14:27 | 41.99879 | -38.62450 | 37386 ft | 544 kts | 77° |
| 2026-05-06 14:27 | 42.00917 | -38.52437 | 37384 ft | 543 kts | 77° |
| 2026-05-06 14:28 | 42.01951 | -38.42360 | 37379 ft | 542 kts | 77° |
| 2026-05-06 14:28 | 42.02974 | -38.32309 | 37378 ft | 541 kts | 77° |
| 2026-05-06 14:29 | 42.03981 | -38.22328 | 37376 ft | 540 kts | 77° |
| 2026-05-06 14:29 | 42.04820 | -38.13938 | 37373 ft | 539 kts | 77° |
| 2026-05-06 14:30 | 42.05808 | -38.03981 | 37369 ft | 538 kts | 77° |
| 2026-05-06 14:30 | 42.06790 | -37.93997 | 37368 ft | 537 kts | 77° |
| 2026-05-06 14:31 | 42.07757 | -37.84075 | 37366 ft | 536 kts | 77° |
| 2026-05-06 14:31 | 42.08720 | -37.74102 | 37362 ft | 535 kts | 78° |
| 2026-05-06 14:32 | 42.09667 | -37.64197 | 37363 ft | 535 kts | 78° |
| 2026-05-06 14:32 | 42.10610 | -37.54249 | 37357 ft | 534 kts | 78° |
| 2026-05-06 14:33 | 42.11539 | -37.44354 | 37358 ft | 534 kts | 78° |
| 2026-05-06 14:33 | 42.12464 | -37.34412 | 37356 ft | 534 kts | 78° |
| 2026-05-06 14:34 | 42.13379 | -37.24476 | 37352 ft | 533 kts | 78° |
| 2026-05-06 14:34 | 42.14279 | -37.14607 | 37359 ft | 533 kts | 79° |
| 2026-05-06 14:35 | 42.15177 | -37.04667 | 37352 ft | 533 kts | 79° |
| 2026-05-06 14:35 | 42.16060 | -36.94789 | 37344 ft | 533 kts | 79° |
| 2026-05-06 14:36 | 42.16941 | -36.84841 | 37346 ft | 533 kts | 79° |
| 2026-05-06 14:36 | 42.17813 | -36.74900 | 37338 ft | 533 kts | 79° |
| 2026-05-06 14:37 | 42.18670 | -36.65019 | 37335 ft | 533 kts | 79° |
| 2026-05-06 14:37 | 42.19525 | -36.55067 | 37336 ft | 533 kts | 79° |
| 2026-05-06 14:38 | 42.20365 | -36.45187 | 37334 ft | 533 kts | 80° |
| 2026-05-06 14:38 | 42.21203 | -36.35232 | 37330 ft | 533 kts | 80° |
| 2026-05-06 14:39 | 42.22030 | -36.25298 | 37327 ft | 533 kts | 80° |
| 2026-05-06 14:39 | 42.22850 | -36.15335 | 37331 ft | 533 kts | 80° |
| 2026-05-06 14:40 | 42.23656 | -36.05443 | 37323 ft | 534 kts | 81° |
| 2026-05-06 14:40 | 42.24460 | -35.95474 | 37317 ft | 534 kts | 81° |
| 2026-05-06 14:41 | 42.25255 | -35.85489 | 37312 ft | 534 kts | 81° |
| 2026-05-06 14:41 | 42.26040 | -35.75540 | 37312 ft | 534 kts | 81° |
| 2026-05-06 14:42 | 42.26818 | -35.65548 | 37309 ft | 535 kts | 81° |
| 2026-05-06 14:42 | 42.27585 | -35.55600 | 37307 ft | 535 kts | 81° |
| 2026-05-06 14:43 | 42.28347 | -35.45586 | 37303 ft | 535 kts | 81° |
| 2026-05-06 14:43 | 42.29101 | -35.35581 | 37299 ft | 535 kts | 82° |
| 2026-05-06 14:44 | 42.29843 | -35.25601 | 37298 ft | 536 kts | 82° |
| 2026-05-06 14:45 | 42.30946 | -35.10547 | 37287 ft | 536 kts | 82° |
| 2026-05-06 14:45 | 42.31670 | -35.00509 | 37287 ft | 536 kts | 82° |
| 2026-05-06 14:46 | 42.32381 | -34.90540 | 37284 ft | 536 kts | 82° |
| 2026-05-06 14:46 | 42.33090 | -34.80461 | 37282 ft | 536 kts | 82° |
| 2026-05-06 14:47 | 42.33784 | -34.70484 | 37278 ft | 536 kts | 83° |
| 2026-05-06 14:47 | 42.34474 | -34.60428 | 37276 ft | 536 kts | 83° |
| 2026-05-06 14:48 | 42.35155 | -34.50368 | 37272 ft | 536 kts | 83° |
| 2026-05-06 14:48 | 42.35823 | -34.40380 | 37268 ft | 536 kts | 83° |
| 2026-05-06 14:49 | 42.36485 | -34.30343 | 37266 ft | 536 kts | 83° |
| 2026-05-06 14:49 | 42.37140 | -34.20285 | 37266 ft | 536 kts | 83° |
| 2026-05-06 14:50 | 42.37781 | -34.10289 | 37260 ft | 536 kts | 84° |
| 2026-05-06 14:50 | 42.38418 | -34.00236 | 37254 ft | 536 kts | 84° |
| 2026-05-06 14:51 | 42.39045 | -33.90190 | 37252 ft | 535 kts | 84° |
| 2026-05-06 14:51 | 42.39660 | -33.80184 | 37248 ft | 535 kts | 84° |
| 2026-05-06 14:52 | 42.40269 | -33.70147 | 37243 ft | 535 kts | 84° |
| 2026-05-06 14:52 | 42.40872 | -33.60068 | 37247 ft | 535 kts | 84° |
| 2026-05-06 14:53 | 42.41460 | -33.50071 | 37228 ft | 536 kts | 85° |
| 2026-05-06 14:53 | 42.42044 | -33.40011 | 37243 ft | 536 kts | 85° |
| 2026-05-06 14:54 | 42.42620 | -33.29930 | 37235 ft | 536 kts | 85° |
| 2026-05-06 14:54 | 42.43183 | -33.19914 | 37229 ft | 536 kts | 85° |
| 2026-05-06 14:55 | 42.43741 | -33.09831 | 37229 ft | 537 kts | 85° |
| 2026-05-06 14:55 | 42.44291 | -32.99738 | 37230 ft | 537 kts | 85° |
| 2026-05-06 14:56 | 42.44830 | -32.89685 | 37209 ft | 538 kts | 86° |
| 2026-05-06 14:56 | 42.45363 | -32.79568 | 37211 ft | 538 kts | 86° |
| 2026-05-06 14:57 | 42.45887 | -32.69439 | 37217 ft | 538 kts | 86° |
| 2026-05-06 14:57 | 42.46400 | -32.59374 | 37216 ft | 539 kts | 86° |
| 2026-05-06 14:58 | 42.46908 | -32.49224 | 37190 ft | 540 kts | 86° |
| 2026-05-06 14:58 | 42.47408 | -32.39036 | 37195 ft | 543 kts | 86° |
| 2026-05-06 14:59 | 42.47899 | -32.28862 | 37213 ft | 545 kts | 86° |
| 2026-05-06 14:59 | 42.48386 | -32.18583 | 37208 ft | 547 kts | 86° |
| 2026-05-06 15:00 | 42.48863 | -32.08308 | 37202 ft | 549 kts | 86° |
| 2026-05-06 15:00 | 42.49337 | -31.97900 | 37195 ft | 551 kts | 87° |
| 2026-05-06 15:01 | 42.49797 | -31.87597 | 37180 ft | 552 kts | 87° |
| 2026-05-06 15:01 | 42.50252 | -31.77201 | 37178 ft | 552 kts | 87° |
| 2026-05-06 15:02 | 42.50696 | -31.66828 | 37177 ft | 550 kts | 87° |
| 2026-05-06 15:02 | 42.51127 | -31.56550 | 37182 ft | 547 kts | 87° |
| 2026-05-06 15:03 | 42.51549 | -31.46249 | 37162 ft | 546 kts | 87° |
| 2026-05-06 15:03 | 42.51962 | -31.35960 | 37171 ft | 545 kts | 87° |
| 2026-05-06 15:04 | 42.52363 | -31.25741 | 37165 ft | 545 kts | 87° |
| 2026-05-06 15:04 | 42.52758 | -31.15434 | 37168 ft | 546 kts | 87° |
| 2026-05-06 15:05 | 42.53142 | -31.05162 | 37164 ft | 547 kts | 87° |
| 2026-05-06 15:05 | 42.53519 | -30.94842 | 37160 ft | 549 kts | 88° |
| 2026-05-06 15:06 | 42.53886 | -30.84548 | 37158 ft | 550 kts | 88° |
| 2026-05-06 15:06 | 42.54247 | -30.74150 | 37152 ft | 551 kts | 88° |
| 2026-05-06 15:07 | 42.54596 | -30.63818 | 37142 ft | 551 kts | 88° |
| 2026-05-06 15:07 | 42.54938 | -30.53433 | 37143 ft | 551 kts | 88° |
| 2026-05-06 15:08 | 42.55271 | -30.43037 | 37144 ft | 551 kts | 88° |
| 2026-05-06 15:08 | 42.55594 | -30.32646 | 37122 ft | 551 kts | 88° |
| 2026-05-06 15:09 | 42.55908 | -30.22259 | 37128 ft | 549 kts | 88° |
| 2026-05-06 15:09 | 42.56209 | -30.11976 | 37120 ft | 548 kts | 88° |
| 2026-05-06 15:10 | 42.56502 | -30.01657 | 37127 ft | 546 kts | 88° |
| 2026-05-06 15:10 | 42.56785 | -29.91354 | 37126 ft | 546 kts | 88° |
| 2026-05-06 15:11 | 42.57059 | -29.81057 | 37127 ft | 545 kts | 88° |
| 2026-05-06 15:11 | 42.57321 | -29.70831 | 37129 ft | 545 kts | 88° |
| 2026-05-06 15:12 | 42.57576 | -29.60536 | 37129 ft | 545 kts | 88° |
| 2026-05-06 15:12 | 42.57822 | -29.50244 | 37130 ft | 546 kts | 88° |
| 2026-05-06 15:13 | 42.58059 | -29.39976 | 37142 ft | 547 kts | 89° |
| 2026-05-06 15:13 | 42.58288 | -29.29629 | 37129 ft | 548 kts | 89° |
| 2026-05-06 15:14 | 42.58508 | -29.19254 | 37135 ft | 549 kts | 89° |
| 2026-05-06 15:14 | 42.58717 | -29.08961 | 37133 ft | 549 kts | 89° |
| 2026-05-06 15:15 | 42.58919 | -28.98549 | 37135 ft | 550 kts | 89° |
| 2026-05-06 15:15 | 42.59110 | -28.88236 | 37139 ft | 550 kts | 89° |
| 2026-05-06 15:16 | 42.59293 | -28.77825 | 37139 ft | 550 kts | 89° |
| 2026-05-06 15:16 | 42.59438 | -28.69183 | 37136 ft | 550 kts | 89° |
| 2026-05-06 15:17 | 42.59630 | -28.57097 | 37137 ft | 550 kts | 89° |
| 2026-05-06 15:17 | 42.59760 | -28.48396 | 37140 ft | 550 kts | 89° |
| 2026-05-06 15:18 | 42.59906 | -28.38087 | 37136 ft | 549 kts | 89° |
| 2026-05-06 15:18 | 42.60043 | -28.27735 | 37136 ft | 548 kts | 89° |
| 2026-05-06 15:19 | 42.60171 | -28.17385 | 37144 ft | 547 kts | 89° |
| 2026-05-06 15:19 | 42.60289 | -28.07045 | 37143 ft | 546 kts | 89° |
| 2026-05-06 15:20 | 42.60398 | -27.96730 | 37149 ft | 546 kts | 89° |
| 2026-05-06 15:20 | 42.60497 | -27.86484 | 37147 ft | 545 kts | 90° |
| 2026-05-06 15:21 | 42.60587 | -27.76161 | 37144 ft | 545 kts | 90° |
| 2026-05-06 15:21 | 42.60668 | -27.65932 | 37149 ft | 545 kts | 90° |
| 2026-05-06 15:22 | 42.60739 | -27.55635 | 37146 ft | 544 kts | 90° |
| 2026-05-06 15:22 | 42.60802 | -27.45333 | 37151 ft | 544 kts | 90° |
| 2026-05-06 15:23 | 42.60855 | -27.35055 | 37148 ft | 544 kts | 90° |
| 2026-05-06 15:23 | 42.60899 | -27.24830 | 37156 ft | 544 kts | 90° |
| 2026-05-06 15:24 | 42.60934 | -27.14532 | 37154 ft | 544 kts | 90° |
| 2026-05-06 15:24 | 42.60959 | -27.04240 | 37154 ft | 545 kts | 90° |
| 2026-05-06 15:25 | 42.60976 | -26.94007 | 37155 ft | 545 kts | 90° |
| 2026-05-06 15:25 | 42.60983 | -26.83684 | 37158 ft | 545 kts | 91° |
| 2026-05-06 15:26 | 42.60981 | -26.73372 | 37159 ft | 546 kts | 91° |
| 2026-05-06 15:26 | 42.60970 | -26.63106 | 37162 ft | 547 kts | 91° |
| 2026-05-06 15:27 | 42.60950 | -26.52766 | 37163 ft | 547 kts | 91° |
| 2026-05-06 15:27 | 42.60920 | -26.42426 | 37162 ft | 548 kts | 91° |
| 2026-05-06 15:28 | 42.60881 | -26.32086 | 37160 ft | 548 kts | 91° |
| 2026-05-06 15:28 | 42.60833 | -26.21727 | 37165 ft | 548 kts | 91° |
| 2026-05-06 15:29 | 42.60775 | -26.11440 | 37164 ft | 548 kts | 91° |
| 2026-05-06 15:29 | 42.60708 | -26.01069 | 37164 ft | 549 kts | 91° |
| 2026-05-06 15:30 | 42.60632 | -25.90699 | 37167 ft | 549 kts | 91° |
| 2026-05-06 15:30 | 42.60546 | -25.80378 | 37166 ft | 549 kts | 91° |
| 2026-05-06 15:31 | 42.60451 | -25.70002 | 37164 ft | 549 kts | 91° |
| 2026-05-06 15:31 | 42.60347 | -25.59624 | 37176 ft | 549 kts | 91° |
| 2026-05-06 15:32 | 42.60173 | -25.44122 | 37160 ft | 549 kts | 91° |
| 2026-05-06 15:32 | 42.60045 | -25.33735 | 37162 ft | 550 kts | 91° |
| 2026-05-06 15:33 | 42.59908 | -25.23363 | 37176 ft | 552 kts | 91° |
| 2026-05-06 15:33 | 42.59760 | -25.12937 | 37175 ft | 553 kts | 91° |
| 2026-05-06 15:34 | 42.59603 | -25.02453 | 37171 ft | 555 kts | 91° |
| 2026-05-06 15:34 | 42.59436 | -24.92029 | 37171 ft | 556 kts | 91° |
| 2026-05-06 15:35 | 42.59259 | -24.81514 | 37170 ft | 557 kts | 91° |
| 2026-05-06 15:35 | 42.59072 | -24.70976 | 37170 ft | 558 kts | 91° |
| 2026-05-06 15:36 | 42.58874 | -24.60429 | 37169 ft | 559 kts | 91° |
| 2026-05-06 15:36 | 42.58669 | -24.49939 | 37172 ft | 560 kts | 91° |
| 2026-05-06 15:37 | 42.58451 | -24.39334 | 37167 ft | 560 kts | 91° |
| 2026-05-06 15:37 | 42.58226 | -24.28840 | 37169 ft | 560 kts | 91° |
| 2026-05-06 15:38 | 42.57989 | -24.18276 | 37168 ft | 559 kts | 91° |
| 2026-05-06 15:38 | 42.57743 | -24.07696 | 37167 ft | 559 kts | 91° |
| 2026-05-06 15:39 | 42.57489 | -23.97213 | 37167 ft | 558 kts | 91° |
| 2026-05-06 15:39 | 42.57225 | -23.86691 | 37166 ft | 557 kts | 91° |
| 2026-05-06 15:40 | 42.56951 | -23.76169 | 37159 ft | 557 kts | 91° |
| 2026-05-06 15:40 | 42.56669 | -23.65740 | 37165 ft | 556 kts | 91° |
| 2026-05-06 15:41 | 42.56377 | -23.55229 | 37169 ft | 556 kts | 91° |
| 2026-05-06 15:41 | 42.56076 | -23.44795 | 37174 ft | 556 kts | 91° |
| 2026-05-06 15:42 | 42.55764 | -23.34277 | 37172 ft | 557 kts | 91° |
| 2026-05-06 15:42 | 42.55442 | -23.23752 | 37171 ft | 558 kts | 91° |
| 2026-05-06 15:43 | 42.55112 | -23.13305 | 37167 ft | 558 kts | 91° |
| 2026-05-06 15:43 | 42.54771 | -23.02775 | 37167 ft | 558 kts | 91° |
| 2026-05-06 15:44 | 42.54421 | -22.92307 | 37168 ft | 558 kts | 91° |
| 2026-05-06 15:44 | 42.54061 | -22.81802 | 37166 ft | 557 kts | 91° |
| 2026-05-06 15:45 | 42.53692 | -22.71300 | 37167 ft | 557 kts | 91° |
| 2026-05-06 15:45 | 42.53314 | -22.60850 | 37165 ft | 556 kts | 91° |
| 2026-05-06 15:46 | 42.52926 | -22.50378 | 37167 ft | 555 kts | 91° |
| 2026-05-06 15:46 | 42.52529 | -22.39912 | 37168 ft | 554 kts | 91° |
| 2026-05-06 15:47 | 42.52124 | -22.29471 | 37164 ft | 553 kts | 91° |
| 2026-05-06 15:47 | 42.51712 | -22.19107 | 37162 ft | 552 kts | 91° |
| 2026-05-06 15:48 | 42.51289 | -22.08709 | 37165 ft | 551 kts | 91° |
| 2026-05-06 15:48 | 42.50857 | -21.98330 | 37163 ft | 550 kts | 91° |
| 2026-05-06 15:49 | 42.50419 | -21.88018 | 37164 ft | 549 kts | 91° |
| 2026-05-06 15:49 | 42.49970 | -21.77680 | 37163 ft | 548 kts | 91° |
| 2026-05-06 15:50 | 42.49516 | -21.67416 | 37165 ft | 548 kts | 91° |
| 2026-05-06 15:50 | 42.49050 | -21.57109 | 37163 ft | 547 kts | 91° |
| 2026-05-06 15:51 | 42.48575 | -21.46811 | 37165 ft | 546 kts | 91° |
| 2026-05-06 15:51 | 42.48093 | -21.36538 | 37164 ft | 545 kts | 91° |
| 2026-05-06 15:52 | 42.47605 | -21.26360 | 37166 ft | 545 kts | 91° |
| 2026-05-06 15:52 | 42.47106 | -21.16121 | 37164 ft | 544 kts | 91° |
| 2026-05-06 15:53 | 42.46597 | -21.05880 | 37165 ft | 544 kts | 91° |
| 2026-05-06 15:53 | 42.46079 | -20.95646 | 37167 ft | 543 kts | 91° |
| 2026-05-06 15:54 | 42.45554 | -20.85439 | 37163 ft | 543 kts | 91° |
| 2026-05-06 15:54 | 42.45023 | -20.75295 | 37162 ft | 542 kts | 91° |
| 2026-05-06 15:55 | 42.44479 | -20.65100 | 37165 ft | 541 kts | 91° |
| 2026-05-06 15:55 | 42.43932 | -20.54988 | 37162 ft | 541 kts | 91° |
| 2026-05-06 15:56 | 42.43374 | -20.44849 | 37160 ft | 540 kts | 91° |
| 2026-05-06 15:56 | 42.42807 | -20.34715 | 37162 ft | 539 kts | 91° |
| 2026-05-06 15:57 | 42.42232 | -20.24604 | 37160 ft | 538 kts | 91° |
| 2026-05-06 15:57 | 42.41649 | -20.14510 | 37161 ft | 537 kts | 91° |
| 2026-05-06 15:58 | 42.41062 | -20.04480 | 37158 ft | 537 kts | 91° |
| 2026-05-06 15:58 | 42.40462 | -19.94398 | 37157 ft | 536 kts | 92° |
| 2026-05-06 15:59 | 42.39854 | -19.84331 | 37159 ft | 536 kts | 92° |
| 2026-05-06 15:59 | 42.39239 | -19.74286 | 37155 ft | 535 kts | 92° |
| 2026-05-06 16:00 | 42.38619 | -19.64303 | 37163 ft | 535 kts | 92° |
| 2026-05-06 16:00 | 42.37986 | -19.54267 | 37158 ft | 534 kts | 92° |
| 2026-05-06 16:01 | 42.37348 | -19.44291 | 37161 ft | 534 kts | 92° |
| 2026-05-06 16:01 | 42.36699 | -19.34293 | 37157 ft | 534 kts | 92° |
| 2026-05-06 16:02 | 42.36042 | -19.24272 | 37165 ft | 534 kts | 92° |
| 2026-05-06 16:02 | 42.35380 | -19.14313 | 37168 ft | 534 kts | 92° |
| 2026-05-06 16:03 | 42.34705 | -19.04305 | 37155 ft | 535 kts | 92° |
| 2026-05-06 16:03 | 42.34020 | -18.94272 | 37159 ft | 535 kts | 92° |
| 2026-05-06 16:04 | 42.33444 | -18.85946 | 37157 ft | 534 kts | 92° |
| 2026-05-06 16:04 | 42.32630 | -18.74313 | 37157 ft | 534 kts | 92° |
| 2026-05-06 16:05 | 42.32036 | -18.65939 | 37155 ft | 534 kts | 92° |
| 2026-05-06 16:05 | 42.31323 | -18.56002 | 37152 ft | 534 kts | 92° |
| 2026-05-06 16:06 | 42.30598 | -18.46009 | 37154 ft | 534 kts | 92° |
| 2026-05-06 16:06 | 42.29869 | -18.36084 | 37152 ft | 534 kts | 92° |
| 2026-05-06 16:07 | 42.29127 | -18.26103 | 37149 ft | 534 kts | 92° |
| 2026-05-06 16:07 | 42.28375 | -18.16109 | 37154 ft | 534 kts | 92° |
| 2026-05-06 16:08 | 42.27613 | -18.06105 | 37152 ft | 535 kts | 92° |
| 2026-05-06 16:08 | 42.26847 | -17.96157 | 37153 ft | 535 kts | 92° |
| 2026-05-06 16:09 | 42.26068 | -17.86150 | 37150 ft | 536 kts | 92° |
| 2026-05-06 16:09 | 42.25277 | -17.76113 | 37144 ft | 537 kts | 92° |
| 2026-05-06 16:10 | 42.24482 | -17.66137 | 37144 ft | 537 kts | 92° |
| 2026-05-06 16:10 | 42.23674 | -17.56111 | 37148 ft | 538 kts | 92° |
| 2026-05-06 16:11 | 42.22855 | -17.46055 | 37147 ft | 538 kts | 92° |
| 2026-05-06 16:11 | 42.22027 | -17.35998 | 37144 ft | 539 kts | 92° |
| 2026-05-06 16:12 | 42.21195 | -17.26009 | 37144 ft | 539 kts | 92° |
| 2026-05-06 16:12 | 42.20349 | -17.15948 | 37142 ft | 539 kts | 92° |
| 2026-05-06 16:13 | 42.19493 | -17.05888 | 37145 ft | 539 kts | 92° |
| 2026-05-06 16:13 | 42.18630 | -16.95843 | 37141 ft | 539 kts | 92° |
| 2026-05-06 16:14 | 42.17763 | -16.85861 | 37142 ft | 539 kts | 92° |
| 2026-05-06 16:14 | 42.16884 | -16.75831 | 37141 ft | 538 kts | 92° |
| 2026-05-06 16:15 | 42.15993 | -16.65787 | 37140 ft | 537 kts | 92° |
| 2026-05-06 16:15 | 42.15103 | -16.55842 | 37130 ft | 537 kts | 92° |
| 2026-05-06 16:16 | 42.14199 | -16.45841 | 37134 ft | 536 kts | 92° |
| 2026-05-06 16:16 | 42.13290 | -16.35877 | 37132 ft | 535 kts | 93° |
| 2026-05-06 16:17 | 42.12378 | -16.25987 | 37124 ft | 534 kts | 93° |
| 2026-05-06 16:17 | 42.11453 | -16.16053 | 37127 ft | 533 kts | 93° |
| 2026-05-06 16:18 | 42.10523 | -16.06156 | 37130 ft | 532 kts | 94° |
| 2026-05-06 16:18 | 42.09593 | -15.96345 | 37125 ft | 531 kts | 94° |
| 2026-05-06 16:19 | 42.08649 | -15.86478 | 37121 ft | 529 kts | 94° |
| 2026-05-06 16:19 | 42.07703 | -15.76691 | 37127 ft | 528 kts | 94° |
| 2026-05-06 16:20 | 42.06746 | -15.66866 | 37122 ft | 527 kts | 94° |
| 2026-05-06 16:20 | 42.05790 | -15.57149 | 37122 ft | 526 kts | 94° |
| 2026-05-06 16:21 | 42.04821 | -15.47381 | 37119 ft | 525 kts | 95° |
| 2026-05-06 16:21 | 42.03846 | -15.37644 | 37118 ft | 524 kts | 95° |
| 2026-05-06 16:22 | 42.02872 | -15.27999 | 37115 ft | 524 kts | 95° |
| 2026-05-06 16:22 | 42.01880 | -15.18253 | 37115 ft | 523 kts | 95° |
| 2026-05-06 16:23 | 42.00885 | -15.08554 | 37114 ft | 523 kts | 95° |
| 2026-05-06 16:23 | 41.99889 | -14.98952 | 37111 ft | 522 kts | 96° |
| 2026-05-06 16:24 | 41.98707 | -14.89289 | 37179 ft | 524 kts | 96° |
| 2026-05-06 16:24 | 41.97411 | -14.79583 | 37117 ft | 528 kts | 96° |
| 2026-05-06 16:25 | 41.96116 | -14.69864 | 37114 ft | 529 kts | 96° |
| 2026-05-06 16:25 | 41.94838 | -14.60151 | 37109 ft | 530 kts | 96° |
| 2026-05-06 16:26 | 41.93555 | -14.50386 | 37108 ft | 531 kts | 96° |
| 2026-05-06 16:26 | 41.92267 | -14.40647 | 37104 ft | 531 kts | 96° |
| 2026-05-06 16:27 | 41.90965 | -14.30882 | 37097 ft | 530 kts | 96° |
| 2026-05-06 16:27 | 41.89658 | -14.21151 | 37098 ft | 529 kts | 97° |
| 2026-05-06 16:28 | 41.88351 | -14.11488 | 37095 ft | 528 kts | 97° |
| 2026-05-06 16:28 | 41.87033 | -14.01802 | 37093 ft | 526 kts | 97° |